Observation data for JA Ranch on 01/14/2021      Previous  Date  Next       Current Mesonet Observations  Soil Data  Daily Summary Page  Observations in Plain Language
KPD3 140600Z 26006KT 06/M00 A2977 RMK A01 T00631003  RH  062%=      5-min Rain = 0
KPD3 140601Z 26006KT 06/M01 A2977 RMK A01 T00631005  RH  062%=      5-min Rain = 0
KPD3 140602Z 26006KT 06/M01 A2977 RMK A01 T00641005  RH  061%=      5-min Rain = 0
KPD3 140603Z 26006KT 06/M01 A2977 RMK A01 T00641005  RH  061%=      5-min Rain = 0
KPD3 140604Z 26004KT 06/M01 A2977 RMK A01 T00641005  RH  061%=      5-min Rain = 0
KPD3 140605Z 26003KT 06/M01 A2977 RMK A01 T00641006  RH  061%=      5-min Rain = 0
KPD3 140606Z 10002KT 06/M00 A2977 RMK A01 T00601003  RH  064%=      5-min Rain = 0
KPD3 140607Z 02001KT 06/M01 A2977 RMK A01 T00561006  RH  064%=      5-min Rain = 0
KPD3 140608Z 25005KT 06/M01 A2977 RMK A01 T00611008  RH  061%=      5-min Rain = 0
KPD3 140609Z 26004KT 07/M01 A2977 RMK A01 T00671007  RH  059%=      5-min Rain = 0
KPD3 140610Z 28003KT 07/M01 A2977 RMK A01 T00681008  RH  058%=      5-min Rain = 0
KPD3 140611Z 35002KT 07/M01 A2977 RMK A01 T00691008  RH  058%=      5-min Rain = 0
KPD3 140612Z 34002KT 07/M01 A2977 RMK A01 T00681006  RH  059%=      5-min Rain = 0
KPD3 140613Z 29004KT 07/M01 A2977 RMK A01 T00661009  RH  059%=      5-min Rain = 0
KPD3 140614Z 29003KT 07/M01 A2977 RMK A01 T00661009  RH  059%=      5-min Rain = 0
KPD3 140615Z 30004KT 07/M01 A2977 RMK A01 T00661009  RH  059%=      5-min Rain = 0
KPD3 140616Z 30003KT 06/M01 A2977 RMK A01 T00641009  RH  059%=      5-min Rain = 0
KPD3 140617Z 31004KT 06/M01 A2977 RMK A01 T00631009  RH  060%=      5-min Rain = 0
KPD3 140618Z 29005KT 06/M01 A2977 RMK A01 T00621010  RH  060%=      5-min Rain = 0
KPD3 140619Z 31005KT 06/M01 A2977 RMK A01 T00621010  RH  060%=      5-min Rain = 0
KPD3 140620Z 32004KT 06/M01 A2977 RMK A01 T00601009  RH  061%=      5-min Rain = 0
KPD3 140621Z 30004KT 06/M01 A2977 RMK A01 T00561009  RH  063%=      5-min Rain = 0
KPD3 140622Z 29004KT 05/M01 A2977 RMK A01 T00541009  RH  064%=      5-min Rain = 0
KPD3 140623Z 32003KT 05/M01 A2977 RMK A01 T00541009  RH  064%=      5-min Rain = 0
KPD3 140624Z 36002KT 05/M01 A2976 RMK A01 T00521009  RH  065%=      5-min Rain = 0
KPD3 140625Z 00002KT 05/M01 A2976 RMK A01 T00501010  RH  065%=      5-min Rain = 0
KPD3 140626Z 04002KT 05/M01 A2976 RMK A01 T00491011  RH  065%=      5-min Rain = 0
KPD3 140627Z 06003KT 05/M01 A2976 RMK A01 T00461012  RH  066%=      5-min Rain = 0
KPD3 140628Z 07004KT 04/M01 A2976 RMK A01 T00441011  RH  067%=      5-min Rain = 0
KPD3 140629Z 07004KT 04/M01 A2976 RMK A01 T00421011  RH  068%=      5-min Rain = 0
KPD3 140630Z 07004KT 04/M01 A2976 RMK A01 T00401011  RH  069%=      5-min Rain = 0
KPD3 140631Z 07004KT 04/M01 A2976 RMK A01 T00391011  RH  070%=      5-min Rain = 0
KPD3 140632Z 06006KT 04/M01 A2976 RMK A01 T00381011  RH  070%=      5-min Rain = 0
KPD3 140633Z 06004KT 04/M01 A2976 RMK A01 T00381011  RH  070%=      5-min Rain = 0
KPD3 140634Z 07003KT 04/M01 A2976 RMK A01 T00371012  RH  070%=      5-min Rain = 0
KPD3 140635Z 09002KT 04/M01 A2976 RMK A01 T00381012  RH  070%=      5-min Rain = 0
KPD3 140636Z 10003KT 04/M01 A2975 RMK A01 T00381012  RH  070%=      5-min Rain = 0
KPD3 140637Z 09004KT 04/M01 A2975 RMK A01 T00381011  RH  070%=      5-min Rain = 0
KPD3 140638Z 08003KT 04/M01 A2976 RMK A01 T00381011  RH  070%=      5-min Rain = 0
KPD3 140639Z 07002KT 04/M01 A2976 RMK A01 T00371011  RH  071%=      5-min Rain = 0
KPD3 140640Z 07003KT 04/M01 A2976 RMK A01 T00361011  RH  071%=      5-min Rain = 0
KPD3 140641Z 07003KT 04/M01 A2976 RMK A01 T00361011  RH  071%=      5-min Rain = 0
KPD3 140642Z 08002KT 04/M01 A2976 RMK A01 T00351012  RH  071%=      5-min Rain = 0
KPD3 140643Z 10001KT 04/M01 A2976 RMK A01 T00361012  RH  071%=      5-min Rain = 0
KPD3 140644Z 08002KT 04/M01 A2976 RMK A01 T00361012  RH  071%=      5-min Rain = 0
KPD3 140645Z 12001KT 04/M01 A2976 RMK A01 T00371012  RH  070%=      5-min Rain = 0
KPD3 140646Z 02000KT 04/M01 A2976 RMK A01 T00371012  RH  070%=      5-min Rain = 0
KPD3 140647Z 02002KT 04/M01 A2976 RMK A01 T00371012  RH  070%=      5-min Rain = 0
KPD3 140648Z 03002KT 04/M01 A2976 RMK A01 T00371012  RH  070%=      5-min Rain = 0
KPD3 140649Z 01002KT 04/M01 A2977 RMK A01 T00371013  RH  070%=      5-min Rain = 0
KPD3 140650Z 01003KT 04/M01 A2977 RMK A01 T00351014  RH  070%=      5-min Rain = 0
KPD3 140651Z 01003KT 03/M01 A2977 RMK A01 T00341014  RH  071%=      5-min Rain = 0
KPD3 140652Z 02002KT 04/M01 A2977 RMK A01 T00361013  RH  070%=      5-min Rain = 0
KPD3 140653Z 01003KT 04/M01 A2977 RMK A01 T00391012  RH  069%=      5-min Rain = 0
KPD3 140654Z 02003KT 04/M01 A2977 RMK A01 T00401013  RH  068%=      5-min Rain = 0
KPD3 140655Z 03002KT 04/M01 A2977 RMK A01 T00391014  RH  068%=      5-min Rain = 0
KPD3 140656Z 02002KT 04/M01 A2976 RMK A01 T00391013  RH  069%=      5-min Rain = 0
KPD3 140657Z 04002KT 04/M01 A2976 RMK A01 T00391013  RH  069%=      5-min Rain = 0
KPD3 140658Z 06003KT 04/M01 A2976 RMK A01 T00381013  RH  069%=      5-min Rain = 0
KPD3 140659Z 07003KT 04/M01 A2976 RMK A01 T00381014  RH  069%=      5-min Rain = 0
KPD3 140700Z 06002KT 04/M01 A2976 RMK A01 T00381013  RH  070%=      5-min Rain = 0
KPD3 140701Z 06002KT 04/M01 A2976 RMK A01 T00361012  RH  071%=      5-min Rain = 0
KPD3 140702Z 05005KT 04/M01 A2976 RMK A01 T00351013  RH  071%=      5-min Rain = 0
KPD3 140703Z 04006KT 04/M01 A2976 RMK A01 T00381013  RH  069%=      5-min Rain = 0
KPD3 140704Z 05006KT 04/M01 A2976 RMK A01 T00391013  RH  069%=      5-min Rain = 0
KPD3 140705Z 05006KT 04/M01 A2976 RMK A01 T00391013  RH  069%=      5-min Rain = 0
KPD3 140706Z 05005KT 04/M01 A2976 RMK A01 T00371013  RH  069%=      5-min Rain = 0
KPD3 140707Z 05004KT 04/M01 A2976 RMK A01 T00361013  RH  070%=      5-min Rain = 0
KPD3 140708Z 05003KT 03/M01 A2976 RMK A01 T00341013  RH  071%=      5-min Rain = 0
KPD3 140709Z 04004KT 03/M01 A2976 RMK A01 T00341012  RH  072%=      5-min Rain = 0
KPD3 140710Z 03004KT 04/M01 A2975 RMK A01 T00351013  RH  071%=      5-min Rain = 0
KPD3 140711Z 02003KT 04/M01 A2975 RMK A01 T00361013  RH  070%=      5-min Rain = 0
KPD3 140712Z 02002KT 04/M01 A2975 RMK A01 T00381013  RH  069%=      5-min Rain = 0
KPD3 140713Z 02002KT 04/M01 A2975 RMK A01 T00381013  RH  069%=      5-min Rain = 0
KPD3 140714Z 03001KT 04/M01 A2975 RMK A01 T00381012  RH  070%=      5-min Rain = 0
KPD3 140715Z 03001KT 04/M01 A2975 RMK A01 T00371012  RH  070%=      5-min Rain = 0
KPD3 140716Z 00000KT 04/M01 A2975 RMK A01 T00371011  RH  071%=      5-min Rain = 0
KPD3 140717Z 00000KT 04/M01 A2976 RMK A01 T00371011  RH  071%=      5-min Rain = 0
KPD3 140718Z 29000KT 04/M01 A2976 RMK A01 T00361011  RH  071%=      5-min Rain = 0
KPD3 140719Z 29000KT 04/M01 A2976 RMK A01 T00361011  RH  071%=      5-min Rain = 0
KPD3 140720Z 29000KT 04/M01 A2976 RMK A01 T00361011  RH  071%=      5-min Rain = 0
KPD3 140721Z 29000KT 04/M01 A2976 RMK A01 T00361013  RH  071%=      5-min Rain = 0
KPD3 140722Z 29000KT 04/M01 A2976 RMK A01 T00371014  RH  070%=      5-min Rain = 0
KPD3 140723Z 00000KT 04/M01 A2976 RMK A01 T00391014  RH  068%=      5-min Rain = 0
KPD3 140724Z 00000KT 04/M01 A2976 RMK A01 T00411014  RH  068%=      5-min Rain = 0
KPD3 140725Z 00000KT 04/M01 A2976 RMK A01 T00411014  RH  068%=      5-min Rain = 0
KPD3 140726Z 00000KT 04/M01 A2975 RMK A01 T00401014  RH  068%=      5-min Rain = 0
KPD3 140727Z 00000KT 04/M01 A2975 RMK A01 T00391014  RH  068%=      5-min Rain = 0
KPD3 140728Z 00000KT 04/M02 A2976 RMK A01 T00391015  RH  068%=      5-min Rain = 0
KPD3 140729Z 00000KT 04/M02 A2976 RMK A01 T00391015  RH  068%=      5-min Rain = 0
KPD3 140730Z 22001KT 04/M02 A2976 RMK A01 T00401016  RH  067%=      5-min Rain = 0
KPD3 140731Z 00000KT 04/M02 A2975 RMK A01 T00401015  RH  067%=      5-min Rain = 0
KPD3 140732Z 00000KT 04/M02 A2975 RMK A01 T00391016  RH  067%=      5-min Rain = 0
KPD3 140733Z 26000KT 04/M02 A2975 RMK A01 T00401016  RH  067%=      5-min Rain = 0
KPD3 140734Z 26000KT 04/M02 A2975 RMK A01 T00401015  RH  067%=      5-min Rain = 0
KPD3 140735Z 26001KT 04/M02 A2975 RMK A01 T00391016  RH  067%=      5-min Rain = 0
KPD3 140736Z 01001KT 04/M02 A2975 RMK A01 T00381016  RH  068%=      5-min Rain = 0
KPD3 140737Z 00002KT 04/M02 A2975 RMK A01 T00371016  RH  068%=      5-min Rain = 0
KPD3 140738Z 01002KT 04/M02 A2975 RMK A01 T00371015  RH  069%=      5-min Rain = 0
KPD3 140739Z 36001KT 04/M02 A2975 RMK A01 T00371015  RH  069%=      5-min Rain = 0
KPD3 140740Z 35000KT 04/M02 A2975 RMK A01 T00361015  RH  070%=      5-min Rain = 0
KPD3 140741Z 21000KT 04/M02 A2975 RMK A01 T00351016  RH  069%=      5-min Rain = 0
KPD3 140742Z 21001KT 04/M02 A2975 RMK A01 T00351015  RH  070%=      5-min Rain = 0
KPD3 140743Z 21000KT 04/M02 A2975 RMK A01 T00351015  RH  070%=      5-min Rain = 0
KPD3 140744Z 21001KT 03/M01 A2975 RMK A01 T00341014  RH  071%=      5-min Rain = 0
KPD3 140745Z 21000KT 03/M02 A2975 RMK A01 T00341015  RH  070%=      5-min Rain = 0
KPD3 140746Z 21000KT 03/M02 A2975 RMK A01 T00341015  RH  070%=      5-min Rain = 0
KPD3 140747Z 21001KT 03/M02 A2975 RMK A01 T00341015  RH  070%=      5-min Rain = 0
KPD3 140748Z 21001KT 03/M02 A2975 RMK A01 T00341015  RH  070%=      5-min Rain = 0
KPD3 140749Z 21000KT 03/M02 A2975 RMK A01 T00341015  RH  070%=      5-min Rain = 0
KPD3 140750Z 21001KT 03/M02 A2975 RMK A01 T00341015  RH  070%=      5-min Rain = 0
KPD3 140751Z 00000KT 04/M02 A2975 RMK A01 T00371015  RH  069%=      5-min Rain = 0
KPD3 140752Z 00000KT 04/M02 A2975 RMK A01 T00401015  RH  068%=      5-min Rain = 0
KPD3 140753Z 00000KT 04/M02 A2975 RMK A01 T00421015  RH  066%=      5-min Rain = 0
KPD3 140754Z 21000KT 04/M02 A2975 RMK A01 T00431017  RH  065%=      5-min Rain = 0
KPD3 140755Z 21000KT 05/M02 A2975 RMK A01 T00451017  RH  064%=      5-min Rain = 0
KPD3 140756Z 18000KT 04/M02 A2975 RMK A01 T00441016  RH  065%=      5-min Rain = 0
KPD3 140757Z 03001KT 04/M02 A2975 RMK A01 T00431018  RH  065%=      5-min Rain = 0
KPD3 140758Z 35001KT 04/M02 A2975 RMK A01 T00431018  RH  064%=      5-min Rain = 0
KPD3 140759Z 00000KT 05/M02 A2975 RMK A01 T00451019  RH  063%=      5-min Rain = 0
KPD3 140800Z 00000KT 04/M02 A2975 RMK A01 T00431018  RH  064%=      5-min Rain = 0
KPD3 140801Z 00000KT 04/M02 A2975 RMK A01 T00401018  RH  066%=      5-min Rain = 0
KPD3 140802Z 22000KT 04/M02 A2975 RMK A01 T00371018  RH  067%=      5-min Rain = 0
KPD3 140803Z 14000KT 04/M02 A2975 RMK A01 T00361018  RH  068%=      5-min Rain = 0
KPD3 140804Z 00000KT 04/M02 A2975 RMK A01 T00361017  RH  068%=      5-min Rain = 0
KPD3 140805Z 00000KT 04/M02 A2975 RMK A01 T00351017  RH  069%=      5-min Rain = 0
KPD3 140806Z 14000KT 03/M02 A2975 RMK A01 T00331017  RH  069%=      5-min Rain = 0
KPD3 140807Z 14001KT 03/M02 A2975 RMK A01 T00321017  RH  070%=      5-min Rain = 0
KPD3 140808Z 14001KT 03/M02 A2975 RMK A01 T00311017  RH  071%=      5-min Rain = 0
KPD3 140809Z 14001KT 03/M02 A2975 RMK A01 T00311017  RH  071%=      5-min Rain = 0
KPD3 140810Z 14001KT 03/M02 A2975 RMK A01 T00321018  RH  070%=      5-min Rain = 0
KPD3 140811Z 13001KT 04/M02 A2975 RMK A01 T00351017  RH  068%=      5-min Rain = 0
KPD3 140812Z 14002KT 04/M02 A2975 RMK A01 T00361017  RH  068%=      5-min Rain = 0
KPD3 140813Z 16001KT 04/M02 A2975 RMK A01 T00381019  RH  066%=      5-min Rain = 0
KPD3 140814Z 16001KT 04/M02 A2975 RMK A01 T00411019  RH  065%=      5-min Rain = 0
KPD3 140815Z 20000KT 04/M02 A2975 RMK A01 T00431020  RH  064%=      5-min Rain = 0
KPD3 140816Z 23001KT 05/M02 A2975 RMK A01 T00461019  RH  063%=      5-min Rain = 0
KPD3 140817Z 24001KT 05/M02 A2975 RMK A01 T00481019  RH  062%=      5-min Rain = 0
KPD3 140818Z 13000KT 05/M02 A2975 RMK A01 T00491020  RH  061%=      5-min Rain = 0
KPD3 140819Z 16000KT 05/M02 A2975 RMK A01 T00491021  RH  060%=      5-min Rain = 0
KPD3 140820Z 14001KT 05/M02 A2975 RMK A01 T00501021  RH  060%=      5-min Rain = 0
KPD3 140821Z 11001KT 05/M02 A2976 RMK A01 T00501021  RH  060%=      5-min Rain = 0
KPD3 140822Z 11001KT 05/M02 A2976 RMK A01 T00481021  RH  061%=      5-min Rain = 0
KPD3 140823Z 11001KT 04/M02 A2976 RMK A01 T00441020  RH  063%=      5-min Rain = 0
KPD3 140824Z 09002KT 04/M02 A2976 RMK A01 T00421020  RH  064%=      5-min Rain = 0
KPD3 140825Z 10001KT 04/M02 A2976 RMK A01 T00401020  RH  065%=      5-min Rain = 0
KPD3 140826Z 10001KT 04/M02 A2976 RMK A01 T00371022  RH  066%=      5-min Rain = 0
KPD3 140827Z 09001KT 04/M02 A2976 RMK A01 T00351022  RH  066%=      5-min Rain = 0
KPD3 140828Z 07002KT 04/M02 A2976 RMK A01 T00371021  RH  066%=      5-min Rain = 0
KPD3 140829Z 09002KT 04/M02 A2976 RMK A01 T00381021  RH  065%=      5-min Rain = 0
KPD3 140830Z 09001KT 04/M02 A2976 RMK A01 T00381022  RH  065%=      5-min Rain = 0
KPD3 140831Z 09000KT 04/M02 A2976 RMK A01 T00391022  RH  064%=      5-min Rain = 0
KPD3 140832Z 18000KT 05/M02 A2976 RMK A01 T00451021  RH  062%=      5-min Rain = 0
KPD3 140833Z 18000KT 05/M02 A2976 RMK A01 T00491022  RH  060%=      5-min Rain = 0
KPD3 140834Z 00000KT 05/M02 A2976 RMK A01 T00521022  RH  059%=      5-min Rain = 0
KPD3 140835Z 00000KT 06/M02 A2976 RMK A01 T00561022  RH  057%=      5-min Rain = 0
KPD3 140836Z 04000KT 06/M02 A2976 RMK A01 T00581023  RH  056%=      5-min Rain = 0
KPD3 140837Z 04001KT 06/M02 A2976 RMK A01 T00561024  RH  056%=      5-min Rain = 0
KPD3 140838Z 05001KT 05/M03 A2976 RMK A01 T00481025  RH  059%=      5-min Rain = 0
KPD3 140839Z 36001KT 04/M03 A2976 RMK A01 T00391026  RH  062%=      5-min Rain = 0
KPD3 140840Z 30002KT 04/M02 A2976 RMK A01 T00431023  RH  062%=      5-min Rain = 0
KPD3 140841Z 28002KT 05/M02 A2976 RMK A01 T00491022  RH  060%=      5-min Rain = 0
KPD3 140842Z 28002KT 05/M02 A2976 RMK A01 T00541022  RH  058%=      5-min Rain = 0
KPD3 140843Z 26003KT 06/M02 A2976 RMK A01 T00571022  RH  056%=      5-min Rain = 0
KPD3 140844Z 26003KT 06/M02 A2976 RMK A01 T00601023  RH  056%=      5-min Rain = 0
KPD3 140845Z 27002KT 06/M02 A2976 RMK A01 T00561023  RH  057%=      5-min Rain = 0
KPD3 140846Z 29003KT 05/M03 A2976 RMK A01 T00541025  RH  057%=      5-min Rain = 0
KPD3 140847Z 29002KT 06/M02 A2976 RMK A01 T00591023  RH  056%=      5-min Rain = 0
KPD3 140848Z 30002KT 06/M02 A2976 RMK A01 T00611023  RH  055%=      5-min Rain = 0
KPD3 140849Z 31003KT 06/M03 A2976 RMK A01 T00631026  RH  053%=      5-min Rain = 0
KPD3 140850Z 32004KT 07/M03 A2976 RMK A01 T00691025  RH  051%=      5-min Rain = 0
KPD3 140851Z 33004KT 07/M03 A2976 RMK A01 T00701027  RH  050%=      5-min Rain = 0
KPD3 140852Z 33004KT 08/M03 A2976 RMK A01 T00781028  RH  047%=      5-min Rain = 0
KPD3 140853Z 33004KT 09/M03 A2976 RMK A01 T00891029  RH  043%=      5-min Rain = 0
KPD3 140854Z 34004KT 10/M03 A2976 RMK A01 T00971029  RH  041%=      5-min Rain = 0
KPD3 140855Z 31004KT 10/M03 A2976 RMK A01 T01001031  RH  040%=      5-min Rain = 0
KPD3 140856Z 31004KT 10/M03 A2976 RMK A01 T01041031  RH  039%=      5-min Rain = 0
KPD3 140857Z 31005KT 11/M03 A2976 RMK A01 T01061032  RH  038%=      5-min Rain = 0
KPD3 140858Z 30003KT 11/M03 A2976 RMK A01 T01081030  RH  038%=      5-min Rain = 0
KPD3 140859Z 31003KT 11/M03 A2976 RMK A01 T01091030  RH  038%=      5-min Rain = 0
KPD3 140900Z 31003KT 11/M03 A2976 RMK A01 T01091029  RH  038%=      5-min Rain = 0
KPD3 140901Z 29004KT 11/M03 A2976 RMK A01 T01081029  RH  038%=      5-min Rain = 0
KPD3 140902Z 29003KT 11/M03 A2976 RMK A01 T01051030  RH  039%=      5-min Rain = 0
KPD3 140903Z 29002KT 10/M03 A2976 RMK A01 T01041031  RH  039%=      5-min Rain = 0
KPD3 140904Z 28003KT 11/M03 A2976 RMK A01 T01051033  RH  038%=      5-min Rain = 0
KPD3 140905Z 28003KT 11/M03 A2976 RMK A01 T01061032  RH  038%=      5-min Rain = 0
KPD3 140906Z 27006KT 11/M03 A2976 RMK A01 T01051031  RH  038%=      5-min Rain = 0
KPD3 140907Z 27007KT 11/M03 A2976 RMK A01 T01051028  RH  039%=      5-min Rain = 0
KPD3 140908Z 27006KT 10/M03 A2976 RMK A01 T01041025  RH  041%=      5-min Rain = 0
KPD3 140909Z 27006KT 10/M03 A2976 RMK A01 T01011025  RH  041%=      5-min Rain = 0
KPD3 140910Z 27005KT 10/M02 A2976 RMK A01 T00991024  RH  042%=      5-min Rain = 0
KPD3 140911Z 27005KT 10/M02 A2977 RMK A01 T00951024  RH  043%=      5-min Rain = 0
KPD3 140912Z 29008KT 09/M02 A2977 RMK A01 T00911024  RH  044%=      5-min Rain = 0
KPD3 140913Z 29011KT 09/M02 A2977 RMK A01 T00881020  RH  046%=      5-min Rain = 0
KPD3 140914Z 29012KT 09/M02 A2977 RMK A01 T00911018  RH  046%=      5-min Rain = 0
KPD3 140915Z 30013KT 10/M02 A2977 RMK A01 T00961017  RH  045%=      5-min Rain = 0
KPD3 140916Z 30013KT 10/M02 A2977 RMK A01 T00991018  RH  044%=      5-min Rain = 0
KPD3 140917Z 30014KT 10/M02 A2977 RMK A01 T01011020  RH  043%=      5-min Rain = 0
KPD3 140918Z 31014KT 10/M02 A2977 RMK A01 T01041020  RH  042%=      5-min Rain = 0
KPD3 140919Z 31015KT 10/M02 A2977 RMK A01 T01041021  RH  041%=      5-min Rain = 0
KPD3 140920Z 31017KT 11/M02 A2977 RMK A01 T01061022  RH  041%=      5-min Rain = 0
KPD3 140921Z 31018KT 11/M02 A2977 RMK A01 T01071023  RH  040%=      5-min Rain = 0
KPD3 140922Z 31018G23KT 11/M02 A2977 RMK A01 T01071023  RH  040%=      5-min Rain = 0
KPD3 140923Z 31018KT 11/M02 A2977 RMK A01 T01061023  RH  041%=      5-min Rain = 0
KPD3 140924Z 31017KT 10/M02 A2977 RMK A01 T01031023  RH  041%=      5-min Rain = 0
KPD3 140925Z 30017KT 10/M02 A2977 RMK A01 T01021023  RH  042%=      5-min Rain = 0
KPD3 140926Z 31017KT 10/M02 A2977 RMK A01 T01001023  RH  042%=      5-min Rain = 0
KPD3 140927Z 31017KT 10/M02 A2977 RMK A01 T01001023  RH  042%=      5-min Rain = 0
KPD3 140928Z 31017KT 10/M02 A2977 RMK A01 T00991023  RH  042%=      5-min Rain = 0
KPD3 140929Z 31015KT 10/M02 A2977 RMK A01 T00991024  RH  042%=      5-min Rain = 0
KPD3 140930Z 30013KT 10/M02 A2977 RMK A01 T00981024  RH  042%=      5-min Rain = 0
KPD3 140931Z 31014KT 10/M02 A2977 RMK A01 T00981024  RH  042%=      5-min Rain = 0
KPD3 140932Z 31015KT 10/M03 A2977 RMK A01 T00981025  RH  042%=      5-min Rain = 0
KPD3 140933Z 31015KT 10/M03 A2977 RMK A01 T00981026  RH  042%=      5-min Rain = 0
KPD3 140934Z 31015KT 10/M03 A2977 RMK A01 T00991026  RH  041%=      5-min Rain = 0
KPD3 140935Z 31015KT 10/M03 A2977 RMK A01 T00991027  RH  041%=      5-min Rain = 0
KPD3 140936Z 31015KT 10/M03 A2977 RMK A01 T01001028  RH  041%=      5-min Rain = 0
KPD3 140937Z 31014KT 10/M03 A2977 RMK A01 T01011028  RH  040%=      5-min Rain = 0
KPD3 140938Z 31014KT 10/M03 A2977 RMK A01 T01021028  RH  040%=      5-min Rain = 0
KPD3 140939Z 31014KT 10/M03 A2977 RMK A01 T01021029  RH  040%=      5-min Rain = 0
KPD3 140940Z 31015KT 10/M03 A2977 RMK A01 T01021029  RH  040%=      5-min Rain = 0
KPD3 140941Z 31015KT 10/M03 A2977 RMK A01 T01031030  RH  039%=      5-min Rain = 0
KPD3 140942Z 31014KT 10/M03 A2977 RMK A01 T01041029  RH  039%=      5-min Rain = 0
KPD3 140943Z 31014KT 10/M03 A2978 RMK A01 T01041030  RH  039%=      5-min Rain = 0
KPD3 140944Z 31013KT 10/M03 A2978 RMK A01 T01031030  RH  039%=      5-min Rain = 0
KPD3 140945Z 31014KT 10/M03 A2978 RMK A01 T01041029  RH  039%=      5-min Rain = 0
KPD3 140946Z 31014KT 10/M03 A2978 RMK A01 T01041030  RH  039%=      5-min Rain = 0
KPD3 140947Z 31015KT 11/M03 A2978 RMK A01 T01061030  RH  039%=      5-min Rain = 0
KPD3 140948Z 31015KT 11/M03 A2978 RMK A01 T01061029  RH  039%=      5-min Rain = 0
KPD3 140949Z 31016KT 11/M03 A2978 RMK A01 T01061030  RH  038%=      5-min Rain = 0
KPD3 140950Z 31015KT 11/M03 A2978 RMK A01 T01071030  RH  038%=      5-min Rain = 0
KPD3 140951Z 31016KT 11/M03 A2978 RMK A01 T01081030  RH  038%=      5-min Rain = 0
KPD3 140952Z 31016KT 11/M03 A2978 RMK A01 T01081030  RH  038%=      5-min Rain = 0
KPD3 140953Z 31017KT 11/M03 A2978 RMK A01 T01081030  RH  038%=      5-min Rain = 0
KPD3 140954Z 31016KT 11/M03 A2979 RMK A01 T01081030  RH  038%=      5-min Rain = 0
KPD3 140955Z 31015KT 11/M03 A2979 RMK A01 T01091030  RH  038%=      5-min Rain = 0
KPD3 140956Z 31015KT 11/M03 A2979 RMK A01 T01081030  RH  038%=      5-min Rain = 0
KPD3 140957Z 30014KT 11/M03 A2979 RMK A01 T01081030  RH  038%=      5-min Rain = 0
KPD3 140958Z 30015KT 11/M03 A2979 RMK A01 T01071030  RH  038%=      5-min Rain = 0
KPD3 140959Z 30014KT 11/M03 A298 RMK A01 T01071029  RH  038%=      5-min Rain = 0
KPD3 141000Z 30014KT 11/M03 A298 RMK A01 T01061030  RH  038%=      5-min Rain = 0
KPD3 141001Z 30012KT 11/M03 A298 RMK A01 T01061030  RH  038%=      5-min Rain = 0
KPD3 141002Z 30012KT 11/M03 A298 RMK A01 T01051030  RH  039%=      5-min Rain = 0
KPD3 141003Z 30011KT 11/M03 A298 RMK A01 T01051030  RH  039%=      5-min Rain = 0
KPD3 141004Z 31011KT 11/M03 A2981 RMK A01 T01051030  RH  038%=      5-min Rain = 0
KPD3 141005Z 31011KT 11/M03 A2981 RMK A01 T01051030  RH  038%=      5-min Rain = 0
KPD3 141006Z 31011KT 11/M03 A2981 RMK A01 T01061031  RH  038%=      5-min Rain = 0
KPD3 141007Z 31011KT 11/M03 A2981 RMK A01 T01061031  RH  038%=      5-min Rain = 0
KPD3 141008Z 32010KT 11/M03 A2982 RMK A01 T01061031  RH  038%=      5-min Rain = 0
KPD3 141009Z 32010KT 11/M03 A2982 RMK A01 T01061030  RH  038%=      5-min Rain = 0
KPD3 141010Z 32009KT 11/M03 A2982 RMK A01 T01061031  RH  038%=      5-min Rain = 0
KPD3 141011Z 32009KT 11/M03 A2982 RMK A01 T01061031  RH  038%=      5-min Rain = 0
KPD3 141012Z 32011KT 11/M03 A2982 RMK A01 T01071032  RH  038%=      5-min Rain = 0
KPD3 141013Z 32012G19KT 11/M03 A2982 RMK A01 T01101031  RH  037%=      5-min Rain = 0
KPD3 141014Z 32014G19KT 11/M03 A2982 RMK A01 T01131031  RH  036%=      5-min Rain = 0
KPD3 141015Z 32014KT 12/M03 A2982 RMK A01 T01171030  RH  036%=      5-min Rain = 0
KPD3 141016Z 33013KT 12/M03 A2982 RMK A01 T01181031  RH  035%=      5-min Rain = 0
KPD3 141017Z 32014KT 12/M03 A2982 RMK A01 T01191031  RH  035%=      5-min Rain = 0
KPD3 141018Z 32015KT 12/M03 A2982 RMK A01 T01201031  RH  035%=      5-min Rain = 0
KPD3 141019Z 33014KT 12/M03 A2982 RMK A01 T01211030  RH  035%=      5-min Rain = 0
KPD3 141020Z 33016KT 12/M03 A2982 RMK A01 T01211030  RH  035%=      5-min Rain = 0
KPD3 141021Z 33015KT 12/M03 A2982 RMK A01 T01201030  RH  035%=      5-min Rain = 0
KPD3 141022Z 33014KT 12/M03 A2982 RMK A01 T01201029  RH  035%=      5-min Rain = 0
KPD3 141023Z 33015KT 12/M03 A2982 RMK A01 T01201029  RH  035%=      5-min Rain = 0
KPD3 141024Z 33014KT 12/M03 A2982 RMK A01 T01201029  RH  035%=      5-min Rain = 0
KPD3 141025Z 33015KT 12/M03 A2982 RMK A01 T01201029  RH  035%=      5-min Rain = 0
KPD3 141026Z 33015KT 12/M03 A2982 RMK A01 T01211028  RH  035%=      5-min Rain = 0
KPD3 141027Z 33014KT 12/M03 A2982 RMK A01 T01201027  RH  036%=      5-min Rain = 0
KPD3 141028Z 33015G20KT 12/M03 A2983 RMK A01 T01201027  RH  036%=      5-min Rain = 0
KPD3 141029Z 33016KT 12/M03 A2983 RMK A01 T01211026  RH  036%=      5-min Rain = 0
KPD3 141030Z 33013KT 12/M03 A2983 RMK A01 T01211026  RH  036%=      5-min Rain = 0
KPD3 141031Z 32018KT 12/M03 A2982 RMK A01 T01201025  RH  036%=      5-min Rain = 0
KPD3 141032Z 32014KT 12/M03 A2982 RMK A01 T01201025  RH  036%=      5-min Rain = 0
KPD3 141033Z 32016G21KT 12/M02 A2982 RMK A01 T01211024  RH  036%=      5-min Rain = 0
KPD3 141034Z 32018KT 12/M02 A2982 RMK A01 T01211023  RH  036%=      5-min Rain = 0
KPD3 141035Z 33016KT 12/M02 A2981 RMK A01 T01221022  RH  037%=      5-min Rain = 0
KPD3 141036Z 33016KT 12/M02 A2981 RMK A01 T01231021  RH  037%=      5-min Rain = 0
KPD3 141037Z 33014KT 12/M02 A2982 RMK A01 T01231020  RH  037%=      5-min Rain = 0
KPD3 141038Z 33016KT 12/M02 A2982 RMK A01 T01231020  RH  037%=      5-min Rain = 0
KPD3 141039Z 34016KT 12/M02 A2983 RMK A01 T01241019  RH  037%=      5-min Rain = 0
KPD3 141040Z 34016G23KT 13/M02 A2984 RMK A01 T01251018  RH  037%=      5-min Rain = 0
KPD3 141041Z 35018G23KT 13/M02 A2984 RMK A01 T01251018  RH  037%=      5-min Rain = 0
KPD3 141042Z 34017G22KT 13/M02 A2983 RMK A01 T01261018  RH  037%=      5-min Rain = 0
KPD3 141043Z 35018KT 13/M02 A2984 RMK A01 T01281018  RH  036%=      5-min Rain = 0
KPD3 141044Z 35019KT 13/M02 A2984 RMK A01 T01271018  RH  036%=      5-min Rain = 0
KPD3 141045Z 34019G24KT 13/M02 A2985 RMK A01 T01271017  RH  037%=      5-min Rain = 0
KPD3 141046Z 35021G26KT 13/M02 A2985 RMK A01 T01261018  RH  037%=      5-min Rain = 0
KPD3 141047Z 35023G29KT 13/M02 A2985 RMK A01 T01261017  RH  037%=      5-min Rain = 0
KPD3 141048Z 35024G30KT 13/M02 A2986 RMK A01 T01271017  RH  037%=      5-min Rain = 0
KPD3 141049Z 35022G29KT 13/M02 A2986 RMK A01 T01261017  RH  037%=      5-min Rain = 0
KPD3 141050Z 35023G29KT 13/M02 A2986 RMK A01 T01251016  RH  038%=      5-min Rain = 0
KPD3 141051Z 35029G37KT 12/M02 A2986 RMK A01 T01241015  RH  038%=      5-min Rain = 0
KPD3 141052Z 35034G41KT 12/M02 A2986 RMK A01 T01241015  RH  038%=      5-min Rain = 0
KPD3 141053Z 35034KT 12/M01 A2987 RMK A01 T01241014  RH  038%=      5-min Rain = 0
KPD3 141054Z 35029G35KT 12/M01 A2987 RMK A01 T01221014  RH  039%=      5-min Rain = 0
KPD3 141055Z 36030G39KT 12/M01 A2987 RMK A01 T01201014  RH  040%=      5-min Rain = 0
KPD3 141056Z 35037G44KT 12/M01 A2987 RMK A01 T01181013  RH  040%=      5-min Rain = 0
KPD3 141057Z 35034G45KT 12/M01 A2988 RMK A01 T01161013  RH  041%=      5-min Rain = 0
KPD3 141058Z 36039G47KT 11/M01 A2988 RMK A01 T01131012  RH  042%=      5-min Rain = 0
KPD3 141059Z 36038G45KT 11/M01 A2988 RMK A01 T01101011  RH  043%=      5-min Rain = 0
KPD3 141100Z 36036G43KT 11/M01 A2988 RMK A01 T01081010  RH  044%=      5-min Rain = 0
KPD3 141101Z 36034G43KT 11/M01 A2989 RMK A01 T01051010  RH  045%=      5-min Rain = 0
KPD3 141102Z 36034G44KT 10/M01 A2989 RMK A01 T01041011  RH  045%=      5-min Rain = 0
KPD3 141103Z 36035G43KT 10/M01 A2989 RMK A01 T01021012  RH  045%=      5-min Rain = 0
KPD3 141104Z 36040KT 10/M01 A2989 RMK A01 T01011012  RH  045%=      5-min Rain = 0
KPD3 141105Z 00035G44KT 10/M01 A2989 RMK A01 T01011013  RH  045%=      5-min Rain = 0
KPD3 141106Z 00032G39KT 10/M01 A2989 RMK A01 T01001013  RH  045%=      5-min Rain = 0
KPD3 141107Z 36036G46KT 10/M01 A2989 RMK A01 T00991013  RH  046%=      5-min Rain = 0
KPD3 141108Z 00029G36KT 10/M01 A299 RMK A01 T00981013  RH  046%=      5-min Rain = 0
KPD3 141109Z 36030G36KT 10/M01 A299 RMK A01 T00971013  RH  046%=      5-min Rain = 0
KPD3 141110Z 36028G33KT 10/M01 A299 RMK A01 T00961013  RH  047%=      5-min Rain = 0
KPD3 141111Z 00030G41KT 10/M01 A2991 RMK A01 T00951013  RH  047%=      5-min Rain = 0
KPD3 141112Z 36036G41KT 10/M01 A2991 RMK A01 T00951013  RH  047%=      5-min Rain = 0
KPD3 141113Z 35032G37KT 10/M01 A2991 RMK A01 T00951013  RH  047%=      5-min Rain = 0
KPD3 141114Z 36024G30KT 10/M01 A2991 RMK A01 T00951013  RH  047%=      5-min Rain = 0
KPD3 141115Z 36030G38KT 09/M01 A2991 RMK A01 T00931013  RH  047%=      5-min Rain = 0
KPD3 141116Z 35033G40KT 09/M01 A2992 RMK A01 T00931013  RH  047%=      5-min Rain = 0
KPD3 141117Z 00032G37KT 09/M01 A2992 RMK A01 T00931014  RH  047%=      5-min Rain = 0
KPD3 141118Z 00028G35KT 09/M01 A2992 RMK A01 T00921014  RH  047%=      5-min Rain = 0
KPD3 141119Z 35027KT 09/M02 A2992 RMK A01 T00911015  RH  047%=      5-min Rain = 0
KPD3 141120Z 35028G38KT 09/M02 A2992 RMK A01 T00911015  RH  048%=      5-min Rain = 0
KPD3 141121Z 35031G37KT 09/M02 A2992 RMK A01 T00901016  RH  047%=      5-min Rain = 0
KPD3 141122Z 35026G31KT 09/M02 A2992 RMK A01 T00911016  RH  047%=      5-min Rain = 0
KPD3 141123Z 35030G35KT 09/M02 A2992 RMK A01 T00901017  RH  047%=      5-min Rain = 0
KPD3 141124Z 35030KT 09/M02 A2992 RMK A01 T00901018  RH  047%=      5-min Rain = 0
KPD3 141125Z 36029G38KT 09/M02 A2992 RMK A01 T00901019  RH  046%=      5-min Rain = 0
KPD3 141126Z 34026G34KT 09/M02 A2992 RMK A01 T00891019  RH  047%=      5-min Rain = 0
KPD3 141127Z 36026G32KT 09/M02 A2992 RMK A01 T00881020  RH  046%=      5-min Rain = 0
KPD3 141128Z 36026G32KT 09/M02 A2992 RMK A01 T00881021  RH  046%=      5-min Rain = 0
KPD3 141129Z 35028G33KT 09/M02 A2992 RMK A01 T00881022  RH  046%=      5-min Rain = 0
KPD3 141130Z 36028KT 09/M02 A2992 RMK A01 T00871023  RH  046%=      5-min Rain = 0
KPD3 141131Z 36031G38KT 09/M02 A2992 RMK A01 T00871024  RH  046%=      5-min Rain = 0
KPD3 141132Z 36026G34KT 09/M03 A2992 RMK A01 T00871026  RH  045%=      5-min Rain = 0
KPD3 141133Z 35021G27KT 09/M03 A2992 RMK A01 T00871026  RH  045%=      5-min Rain = 0
KPD3 141134Z 00027G34KT 09/M03 A2993 RMK A01 T00851026  RH  045%=      5-min Rain = 0
KPD3 141135Z 36028G35KT 09/M03 A2993 RMK A01 T00851028  RH  045%=      5-min Rain = 0
KPD3 141136Z 36030KT 09/M03 A2992 RMK A01 T00851029  RH  045%=      5-min Rain = 0
KPD3 141137Z 35025G35KT 09/M03 A2993 RMK A01 T00861029  RH  044%=      5-min Rain = 0
KPD3 141138Z 35029G35KT 09/M03 A2993 RMK A01 T00861029  RH  044%=      5-min Rain = 0
KPD3 141139Z 00027G33KT 09/M03 A2993 RMK A01 T00861030  RH  044%=      5-min Rain = 0
KPD3 141140Z 35025G31KT 09/M03 A2994 RMK A01 T00851031  RH  044%=      5-min Rain = 0
KPD3 141141Z 35024G30KT 09/M03 A2993 RMK A01 T00851031  RH  044%=      5-min Rain = 0
KPD3 141142Z 36026KT 08/M03 A2994 RMK A01 T00841031  RH  044%=      5-min Rain = 0
KPD3 141143Z 36025G32KT 08/M03 A2994 RMK A01 T00841032  RH  044%=      5-min Rain = 0
KPD3 141144Z 36021G27KT 08/M03 A2994 RMK A01 T00841032  RH  044%=      5-min Rain = 0
KPD3 141145Z 35025G35KT 08/M03 A2994 RMK A01 T00841033  RH  044%=      5-min Rain = 0
KPD3 141146Z 35029G36KT 08/M03 A2994 RMK A01 T00841034  RH  043%=      5-min Rain = 0
KPD3 141147Z 35029G36KT 08/M03 A2994 RMK A01 T00841034  RH  043%=      5-min Rain = 0
KPD3 141148Z 35020G28KT 08/M04 A2995 RMK A01 T00841035  RH  043%=      5-min Rain = 0
KPD3 141149Z 35023G28KT 08/M04 A2995 RMK A01 T00831035  RH  043%=      5-min Rain = 0
KPD3 141150Z 35021KT 08/M04 A2995 RMK A01 T00821036  RH  043%=      5-min Rain = 0
KPD3 141151Z 36023G28KT 08/M04 A2995 RMK A01 T00811036  RH  043%=      5-min Rain = 0
KPD3 141152Z 36023G31KT 08/M04 A2995 RMK A01 T00811037  RH  043%=      5-min Rain = 0
KPD3 141153Z 36028G34KT 08/M04 A2995 RMK A01 T00811037  RH  043%=      5-min Rain = 0
KPD3 141154Z 35026KT 08/M04 A2995 RMK A01 T00811037  RH  043%=      5-min Rain = 0
KPD3 141155Z 35022G29KT 08/M04 A2996 RMK A01 T00811037  RH  043%=      5-min Rain = 0
KPD3 141156Z 35027G34KT 08/M04 A2995 RMK A01 T00811038  RH  043%=      5-min Rain = 0
KPD3 141157Z 35024G30KT 08/M04 A2996 RMK A01 T00811038  RH  043%=      5-min Rain = 0
KPD3 141158Z 35027G33KT 08/M04 A2996 RMK A01 T00801038  RH  043%=      5-min Rain = 0
KPD3 141159Z 36028G37KT 08/M04 A2996 RMK A01 T00801039  RH  043%=      5-min Rain = 0
KPD3 141200Z 36023KT 08/M04 A2996 RMK A01 T00811039  RH  042%=      5-min Rain = 0
KPD3 141201Z 36027G32KT 08/M04 A2996 RMK A01 T00801039  RH  043%=      5-min Rain = 0
KPD3 141202Z 35025G30KT 08/M04 A2996 RMK A01 T00801040  RH  043%=      5-min Rain = 0
KPD3 141203Z 35029G39KT 08/M04 A2996 RMK A01 T00791041  RH  042%=      5-min Rain = 0
KPD3 141204Z 35024G30KT 08/M04 A2996 RMK A01 T00791042  RH  042%=      5-min Rain = 0
KPD3 141205Z 35022G28KT 08/M04 A2996 RMK A01 T00791042  RH  042%=      5-min Rain = 0
KPD3 141206Z 35026KT 08/M04 A2996 RMK A01 T00781042  RH  042%=      5-min Rain = 0
KPD3 141207Z 35030G35KT 08/M04 A2996 RMK A01 T00781043  RH  042%=      5-min Rain = 0
KPD3 141208Z 35027G35KT 08/M04 A2997 RMK A01 T00791044  RH  042%=      5-min Rain = 0
KPD3 141209Z 36025G31KT 08/M04 A2997 RMK A01 T00791044  RH  041%=      5-min Rain = 0
KPD3 141210Z 35032KT 08/M04 A2997 RMK A01 T00791044  RH  041%=      5-min Rain = 0
KPD3 141211Z 35024G34KT 08/M05 A2997 RMK A01 T00791045  RH  041%=      5-min Rain = 0
KPD3 141212Z 35020G25KT 08/M05 A2997 RMK A01 T00781045  RH  042%=      5-min Rain = 0
KPD3 141213Z 35026G32KT 08/M05 A2997 RMK A01 T00761045  RH  042%=      5-min Rain = 0
KPD3 141214Z 35023G31KT 08/M05 A2997 RMK A01 T00751045  RH  042%=      5-min Rain = 0
KPD3 141215Z 35024G29KT 08/M05 A2997 RMK A01 T00751046  RH  042%=      5-min Rain = 0
KPD3 141216Z 35027G32KT 08/M05 A2997 RMK A01 T00751046  RH  042%=      5-min Rain = 0
KPD3 141217Z 36024KT 08/M05 A2997 RMK A01 T00751046  RH  042%=      5-min Rain = 0
KPD3 141218Z 35027G33KT 08/M05 A2997 RMK A01 T00751047  RH  042%=      5-min Rain = 0
KPD3 141219Z 35028G35KT 08/M05 A2997 RMK A01 T00751048  RH  041%=      5-min Rain = 0
KPD3 141220Z 35022G28KT 08/M05 A2998 RMK A01 T00761048  RH  041%=      5-min Rain = 0
KPD3 141221Z 35027G35KT 08/M05 A2998 RMK A01 T00751048  RH  041%=      5-min Rain = 0
KPD3 141222Z 35027G34KT 08/M05 A2998 RMK A01 T00751048  RH  041%=      5-min Rain = 0
KPD3 141223Z 35025G33KT 08/M05 A2998 RMK A01 T00751050  RH  041%=      5-min Rain = 0
KPD3 141224Z 35022KT 08/M05 A2998 RMK A01 T00751049  RH  041%=      5-min Rain = 0
KPD3 141225Z 36021G26KT 07/M05 A2999 RMK A01 T00741049  RH  041%=      5-min Rain = 0
KPD3 141226Z 36021KT 07/M05 A2999 RMK A01 T00741049  RH  041%=      5-min Rain = 0
KPD3 141227Z 35023G30KT 07/M05 A2999 RMK A01 T00731049  RH  042%=      5-min Rain = 0
KPD3 141228Z 36025G31KT 07/M05 A2999 RMK A01 T00731050  RH  041%=      5-min Rain = 0
KPD3 141229Z 36023KT 07/M05 A2999 RMK A01 T00731051  RH  041%=      5-min Rain = 0
KPD3 141230Z 36019G24KT 07/M05 A2999 RMK A01 T00731050  RH  041%=      5-min Rain = 0
KPD3 141231Z 35023KT 07/M05 A30 RMK A01 T00721051  RH  041%=      5-min Rain = 0
KPD3 141232Z 36021G26KT 07/M05 A30 RMK A01 T00721051  RH  041%=      5-min Rain = 0
KPD3 141233Z 36023G30KT 07/M05 A30 RMK A01 T00721051  RH  041%=      5-min Rain = 0
KPD3 141234Z 00022G31KT 07/M05 A30 RMK A01 T00721051  RH  041%=      5-min Rain = 0
KPD3 141235Z 36020G26KT 07/M05 A30 RMK A01 T00721052  RH  041%=      5-min Rain = 0
KPD3 141236Z 35021KT 07/M05 A30 RMK A01 T00711052  RH  041%=      5-min Rain = 0
KPD3 141237Z 01017KT 07/M05 A30 RMK A01 T00711052  RH  041%=      5-min Rain = 0
KPD3 141238Z 01023KT 07/M05 A3001 RMK A01 T00701052  RH  041%=      5-min Rain = 0
KPD3 141239Z 36021KT 07/M05 A3001 RMK A01 T00701053  RH  041%=      5-min Rain = 0
KPD3 141240Z 36021KT 07/M05 A3001 RMK A01 T00711052  RH  041%=      5-min Rain = 0
KPD3 141241Z 36018G23KT 07/M05 A3001 RMK A01 T00711052  RH  041%=      5-min Rain = 0
KPD3 141242Z 35018KT 07/M05 A3001 RMK A01 T00701052  RH  041%=      5-min Rain = 0
KPD3 141243Z 00018G24KT 07/M05 A3001 RMK A01 T00691052  RH  042%=      5-min Rain = 0
KPD3 141244Z 36022G27KT 07/M05 A3001 RMK A01 T00691052  RH  042%=      5-min Rain = 0
KPD3 141245Z 36022KT 07/M05 A3001 RMK A01 T00691051  RH  042%=      5-min Rain = 0
KPD3 141246Z 35024G30KT 07/M05 A3001 RMK A01 T00691051  RH  042%=      5-min Rain = 0
KPD3 141247Z 36022G28KT 07/M05 A3001 RMK A01 T00701051  RH  042%=      5-min Rain = 0
KPD3 141248Z 36018G23KT 07/M05 A3002 RMK A01 T00691051  RH  042%=      5-min Rain = 0
KPD3 141249Z 35020KT 07/M05 A3002 RMK A01 T00691051  RH  042%=      5-min Rain = 0
KPD3 141250Z 35021G30KT 07/M05 A3002 RMK A01 T00691051  RH  042%=      5-min Rain = 0
KPD3 141251Z 35019G25KT 07/M05 A3003 RMK A01 T00691051  RH  042%=      5-min Rain = 0
KPD3 141252Z 35026G31KT 07/M05 A3002 RMK A01 T00691051  RH  042%=      5-min Rain = 0
KPD3 141253Z 35020G25KT 07/M05 A3003 RMK A01 T00701051  RH  042%=      5-min Rain = 0
KPD3 141254Z 36018G26KT 07/M05 A3003 RMK A01 T00701050  RH  042%=      5-min Rain = 0
KPD3 141255Z 34019KT 07/M05 A3004 RMK A01 T00691051  RH  042%=      5-min Rain = 0
KPD3 141256Z 35019KT 07/M05 A3004 RMK A01 T00691051  RH  042%=      5-min Rain = 0
KPD3 141257Z 34018G23KT 07/M05 A3004 RMK A01 T00691051  RH  042%=      5-min Rain = 0
KPD3 141258Z 35023G29KT 07/M05 A3004 RMK A01 T00691052  RH  042%=      5-min Rain = 0
KPD3 141259Z 35024G30KT 07/M05 A3004 RMK A01 T00691052  RH  042%=      5-min Rain = 0
KPD3 141300Z 35018KT 07/M05 A3004 RMK A01 T00691051  RH  042%=      5-min Rain = 0
KPD3 141301Z 00020G28KT 07/M05 A3004 RMK A01 T00681051  RH  042%=      5-min Rain = 0
KPD3 141302Z 00022KT 07/M05 A3004 RMK A01 T00681052  RH  042%=      5-min Rain = 0
KPD3 141303Z 00024KT 07/M05 A3004 RMK A01 T00681052  RH  042%=      5-min Rain = 0
KPD3 141304Z 36020KT 07/M05 A3004 RMK A01 T00691052  RH  042%=      5-min Rain = 0
KPD3 141305Z 35022KT 07/M05 A3004 RMK A01 T00691052  RH  042%=      5-min Rain = 0
KPD3 141306Z 35022G29KT 07/M05 A3004 RMK A01 T00681052  RH  042%=      5-min Rain = 0
KPD3 141307Z 36023KT 07/M05 A3004 RMK A01 T00681053  RH  042%=      5-min Rain = 0
KPD3 141308Z 36017G22KT 07/M05 A3004 RMK A01 T00691052  RH  042%=      5-min Rain = 0
KPD3 141309Z 00022G28KT 07/M05 A3004 RMK A01 T00681053  RH  042%=      5-min Rain = 0
KPD3 141310Z 36021KT 07/M05 A3004 RMK A01 T00671053  RH  042%=      5-min Rain = 0
KPD3 141311Z 36017G24KT 07/M05 A3004 RMK A01 T00671053  RH  042%=      5-min Rain = 0
KPD3 141312Z 35023G28KT 07/M05 A3004 RMK A01 T00661053  RH  042%=      5-min Rain = 0
KPD3 141313Z 36022G28KT 07/M05 A3004 RMK A01 T00661053  RH  042%=      5-min Rain = 0
KPD3 141314Z 36024KT 07/M05 A3004 RMK A01 T00671053  RH  042%=      5-min Rain = 0
KPD3 141315Z 35028KT 07/M05 A3004 RMK A01 T00671053  RH  042%=      5-min Rain = 0
KPD3 141316Z 35021G27KT 07/M05 A3004 RMK A01 T00681053  RH  042%=      5-min Rain = 0
KPD3 141317Z 36019G24KT 07/M05 A3004 RMK A01 T00681053  RH  042%=      5-min Rain = 0
KPD3 141318Z 00018KT 07/M05 A3004 RMK A01 T00661053  RH  042%=      5-min Rain = 0
KPD3 141319Z 35019KT 06/M05 A3004 RMK A01 T00641053  RH  043%=      5-min Rain = 0
KPD3 141320Z 00024KT 06/M05 A3004 RMK A01 T00641052  RH  043%=      5-min Rain = 0
KPD3 141321Z 00021G26KT 07/M05 A3004 RMK A01 T00651052  RH  043%=      5-min Rain = 0
KPD3 141322Z 36022KT 07/M05 A3004 RMK A01 T00651053  RH  043%=      5-min Rain = 0
KPD3 141323Z 36026G32KT 07/M05 A3003 RMK A01 T00651053  RH  043%=      5-min Rain = 0
KPD3 141324Z 00022G30KT 07/M05 A3004 RMK A01 T00661053  RH  043%=      5-min Rain = 0
KPD3 141325Z 36022G27KT 07/M05 A3003 RMK A01 T00661052  RH  043%=      5-min Rain = 0
KPD3 141326Z 35020G28KT 07/M05 A3004 RMK A01 T00651052  RH  043%=      5-min Rain = 0
KPD3 141327Z 01022KT 06/M05 A3004 RMK A01 T00641052  RH  043%=      5-min Rain = 0
KPD3 141328Z 00023KT 06/M05 A3004 RMK A01 T00641053  RH  043%=      5-min Rain = 0
KPD3 141329Z 35027G34KT 07/M05 A3003 RMK A01 T00651052  RH  043%=      5-min Rain = 0
KPD3 141330Z 36026KT 07/M05 A3004 RMK A01 T00661052  RH  043%=      5-min Rain = 0
KPD3 141331Z 00021KT 07/M05 A3004 RMK A01 T00661052  RH  043%=      5-min Rain = 0
KPD3 141332Z 36022G27KT 07/M05 A3004 RMK A01 T00651052  RH  043%=      5-min Rain = 0
KPD3 141333Z 35020G25KT 06/M05 A3004 RMK A01 T00641052  RH  043%=      5-min Rain = 0
KPD3 141334Z 36020G25KT 06/M05 A3004 RMK A01 T00641052  RH  043%=      5-min Rain = 0
KPD3 141335Z 35021G26KT 06/M05 A3004 RMK A01 T00641052  RH  043%=      5-min Rain = 0
KPD3 141336Z 35021G30KT 06/M05 A3005 RMK A01 T00631052  RH  043%=      5-min Rain = 0
KPD3 141337Z 36023KT 06/M05 A3004 RMK A01 T00641052  RH  043%=      5-min Rain = 0
KPD3 141338Z 00024G29KT 06/M05 A3005 RMK A01 T00641052  RH  043%=      5-min Rain = 0
KPD3 141339Z 36025KT 06/M05 A3005 RMK A01 T00641052  RH  043%=      5-min Rain = 0
KPD3 141340Z 35019G24KT 07/M05 A3005 RMK A01 T00651051  RH  043%=      5-min Rain = 0
KPD3 141341Z 01022G30KT 06/M05 A3005 RMK A01 T00631051  RH  044%=      5-min Rain = 0
KPD3 141342Z 35018KT 06/M05 A3005 RMK A01 T00631051  RH  044%=      5-min Rain = 0
KPD3 141343Z 35022G31KT 06/M05 A3005 RMK A01 T00631051  RH  044%=      5-min Rain = 0
KPD3 141344Z 35025G31KT 06/M05 A3005 RMK A01 T00631051  RH  044%=      5-min Rain = 0
KPD3 141345Z 36025G31KT 06/M05 A3006 RMK A01 T00641051  RH  044%=      5-min Rain = 0
KPD3 141346Z 35018G24KT 06/M05 A3006 RMK A01 T00641051  RH  044%=      5-min Rain = 0
KPD3 141347Z 35020G26KT 06/M05 A3006 RMK A01 T00631051  RH  044%=      5-min Rain = 0
KPD3 141348Z 35020G26KT 06/M05 A3006 RMK A01 T00631051  RH  044%=      5-min Rain = 0
KPD3 141349Z 35020G29KT 06/M05 A3006 RMK A01 T00631051  RH  044%=      5-min Rain = 0
KPD3 141350Z 36020G26KT 06/M05 A3006 RMK A01 T00631051  RH  044%=      5-min Rain = 0
KPD3 141351Z 36023G29KT 06/M05 A3006 RMK A01 T00631051  RH  044%=      5-min Rain = 0
KPD3 141352Z 35023KT 06/M05 A3006 RMK A01 T00631051  RH  044%=      5-min Rain = 0
KPD3 141353Z 35023KT 06/M05 A3007 RMK A01 T00631051  RH  044%=      5-min Rain = 0
KPD3 141354Z 36022G27KT 06/M05 A3007 RMK A01 T00631051  RH  044%=      5-min Rain = 0
KPD3 141355Z 36017G24KT 06/M05 A3007 RMK A01 T00631051  RH  044%=      5-min Rain = 0
KPD3 141356Z 36021KT 06/M05 A3007 RMK A01 T00621051  RH  044%=      5-min Rain = 0
KPD3 141357Z 35021KT 06/M05 A3007 RMK A01 T00621051  RH  044%=      5-min Rain = 0
KPD3 141358Z 35017G22KT 06/M05 A3007 RMK A01 T00621051  RH  044%=      5-min Rain = 0
KPD3 141359Z 36021G27KT 06/M05 A3007 RMK A01 T00621051  RH  044%=      5-min Rain = 0
KPD3 141400Z 35021KT 06/M05 A3007 RMK A01 T00621051  RH  044%=      5-min Rain = 0
KPD3 141401Z 35019G24KT 06/M05 A3007 RMK A01 T00621051  RH  044%=      5-min Rain = 0
KPD3 141402Z 35017G23KT 06/M05 A3008 RMK A01 T00621051  RH  044%=      5-min Rain = 0
KPD3 141403Z 35018KT 06/M05 A3008 RMK A01 T00621051  RH  044%=      5-min Rain = 0
KPD3 141404Z 35016KT 06/M05 A3008 RMK A01 T00621051  RH  044%=      5-min Rain = 0
KPD3 141405Z 35012KT 06/M05 A3008 RMK A01 T00621051  RH  044%=      5-min Rain = 0
KPD3 141406Z 36015KT 06/M05 A3008 RMK A01 T00611051  RH  044%=      5-min Rain = 0
KPD3 141407Z 35015G20KT 06/M05 A3008 RMK A01 T00601051  RH  045%=      5-min Rain = 0
KPD3 141408Z 35016G23KT 06/M05 A3008 RMK A01 T00601051  RH  045%=      5-min Rain = 0
KPD3 141409Z 35016G21KT 06/M05 A3008 RMK A01 T00601051  RH  045%=      5-min Rain = 0
KPD3 141410Z 36016KT 06/M05 A3008 RMK A01 T00601051  RH  045%=      5-min Rain = 0
KPD3 141411Z 35021G27KT 06/M05 A3008 RMK A01 T00611051  RH  045%=      5-min Rain = 0
KPD3 141412Z 36020G25KT 06/M05 A3008 RMK A01 T00611050  RH  045%=      5-min Rain = 0
KPD3 141413Z 35015G20KT 06/M05 A3008 RMK A01 T00621050  RH  044%=      5-min Rain = 0
KPD3 141414Z 35019KT 06/M05 A3008 RMK A01 T00621050  RH  045%=      5-min Rain = 0
KPD3 141415Z 35019KT 06/M05 A3008 RMK A01 T00611050  RH  045%=      5-min Rain = 0
KPD3 141416Z 35014KT 06/M05 A3008 RMK A01 T00621051  RH  044%=      5-min Rain = 0
KPD3 141417Z 35016G21KT 06/M05 A3008 RMK A01 T00621050  RH  044%=      5-min Rain = 0
KPD3 141418Z 35018KT 06/M05 A3008 RMK A01 T00621050  RH  045%=      5-min Rain = 0
KPD3 141419Z 35016KT 06/M05 A3008 RMK A01 T00621050  RH  045%=      5-min Rain = 0
KPD3 141420Z 35016KT 06/M05 A3008 RMK A01 T00621050  RH  044%=      5-min Rain = 0
KPD3 141421Z 35017G23KT 06/M05 A3008 RMK A01 T00621050  RH  045%=      5-min Rain = 0
KPD3 141422Z 35018KT 06/M05 A3008 RMK A01 T00621050  RH  045%=      5-min Rain = 0
KPD3 141423Z 36014G19KT 06/M05 A3008 RMK A01 T00621049  RH  045%=      5-min Rain = 0
KPD3 141424Z 35015G24KT 06/M05 A3008 RMK A01 T00621049  RH  045%=      5-min Rain = 0
KPD3 141425Z 35018KT 06/M05 A3008 RMK A01 T00621050  RH  045%=      5-min Rain = 0
KPD3 141426Z 00016KT 06/M05 A3008 RMK A01 T00621049  RH  045%=      5-min Rain = 0
KPD3 141427Z 36018G24KT 06/M05 A3008 RMK A01 T00621049  RH  045%=      5-min Rain = 0
KPD3 141428Z 36015G21KT 06/M05 A3009 RMK A01 T00621049  RH  045%=      5-min Rain = 0
KPD3 141429Z 36015KT 06/M05 A3008 RMK A01 T00621049  RH  045%=      5-min Rain = 0
KPD3 141430Z 36018KT 06/M05 A3009 RMK A01 T00621049  RH  045%=      5-min Rain = 0
KPD3 141431Z 35015KT 06/M05 A3009 RMK A01 T00631048  RH  045%=      5-min Rain = 0
KPD3 141432Z 36014KT 06/M05 A3009 RMK A01 T00631048  RH  045%=      5-min Rain = 0
KPD3 141433Z 35012G17KT 06/M05 A3009 RMK A01 T00631048  RH  045%=      5-min Rain = 0
KPD3 141434Z 35012KT 06/M05 A3009 RMK A01 T00631048  RH  045%=      5-min Rain = 0
KPD3 141435Z 35013KT 06/M05 A3009 RMK A01 T00641048  RH  045%=      5-min Rain = 0
KPD3 141436Z 35015KT 06/M05 A3009 RMK A01 T00641048  RH  045%=      5-min Rain = 0
KPD3 141437Z 35013KT 07/M05 A301 RMK A01 T00651048  RH  044%=      5-min Rain = 0
KPD3 141438Z 35016KT 07/M05 A301 RMK A01 T00651048  RH  044%=      5-min Rain = 0
KPD3 141439Z 34016KT 07/M05 A301 RMK A01 T00661048  RH  044%=      5-min Rain = 0
KPD3 141440Z 35014KT 07/M05 A301 RMK A01 T00661048  RH  044%=      5-min Rain = 0
KPD3 141441Z 35012KT 07/M05 A301 RMK A01 T00671047  RH  044%=      5-min Rain = 0
KPD3 141442Z 35013KT 07/M05 A301 RMK A01 T00681047  RH  044%=      5-min Rain = 0
KPD3 141443Z 35019G25KT 07/M05 A301 RMK A01 T00691047  RH  043%=      5-min Rain = 0
KPD3 141444Z 35015KT 07/M05 A301 RMK A01 T00691048  RH  043%=      5-min Rain = 0
KPD3 141445Z 34013KT 07/M05 A301 RMK A01 T00691048  RH  043%=      5-min Rain = 0
KPD3 141446Z 35015KT 07/M05 A301 RMK A01 T00691049  RH  043%=      5-min Rain = 0
KPD3 141447Z 35019KT 07/M05 A301 RMK A01 T00701049  RH  042%=      5-min Rain = 0
KPD3 141448Z 35017G22KT 07/M05 A301 RMK A01 T00691050  RH  042%=      5-min Rain = 0
KPD3 141449Z 34016KT 07/M05 A301 RMK A01 T00691050  RH  042%=      5-min Rain = 0
KPD3 141450Z 35017G24KT 07/M05 A301 RMK A01 T00691050  RH  043%=      5-min Rain = 0
KPD3 141451Z 35016KT 07/M05 A301 RMK A01 T00681050  RH  042%=      5-min Rain = 0
KPD3 141452Z 36015G21KT 07/M05 A301 RMK A01 T00681050  RH  043%=      5-min Rain = 0
KPD3 141453Z 34013G20KT 07/M05 A301 RMK A01 T00681050  RH  043%=      5-min Rain = 0
KPD3 141454Z 35018G23KT 07/M05 A301 RMK A01 T00691051  RH  042%=      5-min Rain = 0
KPD3 141455Z 35020KT 07/M05 A301 RMK A01 T00701052  RH  042%=      5-min Rain = 0
KPD3 141456Z 35014KT 07/M05 A301 RMK A01 T00701052  RH  041%=      5-min Rain = 0
KPD3 141457Z 34012G17KT 07/M05 A301 RMK A01 T00691051  RH  042%=      5-min Rain = 0
KPD3 141458Z 35015G21KT 07/M05 A301 RMK A01 T00691051  RH  042%=      5-min Rain = 0
KPD3 141459Z 35016KT 07/M05 A301 RMK A01 T00681052  RH  042%=      5-min Rain = 0
KPD3 141500Z 34015KT 07/M05 A301 RMK A01 T00681052  RH  042%=      5-min Rain = 0
KPD3 141501Z 36015KT 07/M05 A301 RMK A01 T00681052  RH  042%=      5-min Rain = 0
KPD3 141502Z 35016KT 07/M05 A301 RMK A01 T00671052  RH  042%=      5-min Rain = 0
KPD3 141503Z 36015KT 07/M05 A3011 RMK A01 T00671053  RH  042%=      5-min Rain = 0
KPD3 141504Z 35017G23KT 07/M05 A301 RMK A01 T00671053  RH  042%=      5-min Rain = 0
KPD3 141505Z 35018G24KT 07/M05 A301 RMK A01 T00671054  RH  042%=      5-min Rain = 0
KPD3 141506Z 35019KT 07/M05 A301 RMK A01 T00671054  RH  042%=      5-min Rain = 0
KPD3 141507Z 00014G19KT 07/M05 A301 RMK A01 T00671053  RH  042%=      5-min Rain = 0
KPD3 141508Z 35018KT 07/M05 A301 RMK A01 T00661053  RH  042%=      5-min Rain = 0
KPD3 141509Z 00016KT 07/M05 A3011 RMK A01 T00661053  RH  042%=      5-min Rain = 0
KPD3 141510Z 36016KT 07/M05 A3011 RMK A01 T00661054  RH  042%=      5-min Rain = 0
KPD3 141511Z 35015G21KT 07/M05 A3011 RMK A01 T00661053  RH  042%=      5-min Rain = 0
KPD3 141512Z 35018G24KT 07/M05 A3011 RMK A01 T00661053  RH  042%=      5-min Rain = 0
KPD3 141513Z 35016KT 07/M05 A3011 RMK A01 T00661054  RH  042%=      5-min Rain = 0
KPD3 141514Z 34017KT 07/M05 A3011 RMK A01 T00661054  RH  042%=      5-min Rain = 0
KPD3 141515Z 35018G25KT 07/M06 A3011 RMK A01 T00661055  RH  042%=      5-min Rain = 0
KPD3 141516Z 36020G25KT 07/M06 A3011 RMK A01 T00661056  RH  041%=      5-min Rain = 0
KPD3 141517Z 35018KT 07/M06 A3011 RMK A01 T00661056  RH  041%=      5-min Rain = 0
KPD3 141518Z 35014KT 07/M06 A3011 RMK A01 T00671055  RH  041%=      5-min Rain = 0
KPD3 141519Z 35021G28KT 07/M06 A3011 RMK A01 T00671055  RH  041%=      5-min Rain = 0
KPD3 141520Z 34020G27KT 07/M06 A3011 RMK A01 T00671058  RH  040%=      5-min Rain = 0
KPD3 141521Z 35018KT 07/M06 A3011 RMK A01 T00681057  RH  041%=      5-min Rain = 0
KPD3 141522Z 35018G23KT 07/M06 A3011 RMK A01 T00681057  RH  041%=      5-min Rain = 0
KPD3 141523Z 35023G28KT 07/M06 A3011 RMK A01 T00681057  RH  040%=      5-min Rain = 0
KPD3 141524Z 35019KT 07/M06 A3011 RMK A01 T00701058  RH  040%=      5-min Rain = 0
KPD3 141525Z 35018G24KT 07/M06 A3011 RMK A01 T00701059  RH  039%=      5-min Rain = 0
KPD3 141526Z 36014KT 07/M06 A3012 RMK A01 T00711058  RH  039%=      5-min Rain = 0
KPD3 141527Z 35021G27KT 07/M06 A3011 RMK A01 T00721057  RH  040%=      5-min Rain = 0
KPD3 141528Z 35020KT 07/M06 A3011 RMK A01 T00731058  RH  039%=      5-min Rain = 0
KPD3 141529Z 35025G30KT 07/M06 A3012 RMK A01 T00741061  RH  038%=      5-min Rain = 0
KPD3 141530Z 35020KT 07/M06 A3012 RMK A01 T00741061  RH  038%=      5-min Rain = 0
KPD3 141531Z 35019G25KT 07/M06 A3012 RMK A01 T00741060  RH  038%=      5-min Rain = 0
KPD3 141532Z 35023G28KT 07/M06 A3011 RMK A01 T00741061  RH  038%=      5-min Rain = 0
KPD3 141533Z 36023G29KT 07/M06 A3012 RMK A01 T00741062  RH  038%=      5-min Rain = 0
KPD3 141534Z 35022G27KT 07/M06 A3012 RMK A01 T00741061  RH  038%=      5-min Rain = 0
KPD3 141535Z 35016G22KT 08/M06 A3012 RMK A01 T00751063  RH  037%=      5-min Rain = 0
KPD3 141536Z 35024G30KT 08/M06 A3012 RMK A01 T00761062  RH  037%=      5-min Rain = 0
KPD3 141537Z 35026KT 08/M07 A3012 RMK A01 T00771065  RH  036%=      5-min Rain = 0
KPD3 141538Z 00022G28KT 08/M07 A3012 RMK A01 T00761067  RH  036%=      5-min Rain = 0
KPD3 141539Z 36023G28KT 08/M07 A3012 RMK A01 T00761066  RH  036%=      5-min Rain = 0
KPD3 141540Z 36018G23KT 08/M07 A3012 RMK A01 T00761066  RH  036%=      5-min Rain = 0
KPD3 141541Z 35016G21KT 08/M06 A3012 RMK A01 T00771063  RH  036%=      5-min Rain = 0
KPD3 141542Z 00018G26KT 08/M06 A3012 RMK A01 T00781063  RH  036%=      5-min Rain = 0
KPD3 141543Z 35025KT 08/M07 A3012 RMK A01 T00781067  RH  035%=      5-min Rain = 0
KPD3 141544Z 35021KT 08/M07 A3012 RMK A01 T00781067  RH  035%=      5-min Rain = 0
KPD3 141545Z 36019G24KT 08/M07 A3012 RMK A01 T00781067  RH  035%=      5-min Rain = 0
KPD3 141546Z 36024G32KT 08/M07 A3013 RMK A01 T00771067  RH  035%=      5-min Rain = 0
KPD3 141547Z 35019G24KT 08/M07 A3013 RMK A01 T00771068  RH  035%=      5-min Rain = 0
KPD3 141548Z 35024G31KT 08/M07 A3012 RMK A01 T00761068  RH  035%=      5-min Rain = 0
KPD3 141549Z 00021G26KT 08/M07 A3013 RMK A01 T00761068  RH  035%=      5-min Rain = 0
KPD3 141550Z 36024G31KT 08/M07 A3012 RMK A01 T00771069  RH  035%=      5-min Rain = 0
KPD3 141551Z 36024G31KT 08/M07 A3012 RMK A01 T00771070  RH  035%=      5-min Rain = 0
KPD3 141552Z 00025G32KT 08/M07 A3012 RMK A01 T00771071  RH  034%=      5-min Rain = 0
KPD3 141553Z 36023G29KT 08/M07 A3012 RMK A01 T00771071  RH  034%=      5-min Rain = 0
KPD3 141554Z 35022KT 08/M07 A3012 RMK A01 T00781070  RH  034%=      5-min Rain = 0
KPD3 141555Z 36022G28KT 08/M07 A3013 RMK A01 T00781069  RH  034%=      5-min Rain = 0
KPD3 141556Z 36026G33KT 08/M07 A3012 RMK A01 T00791071  RH  034%=      5-min Rain = 0
KPD3 141557Z 36030KT 08/M07 A3012 RMK A01 T00801074  RH  033%=      5-min Rain = 0
KPD3 141558Z 35025G33KT 08/M08 A3012 RMK A01 T00811075  RH  032%=      5-min Rain = 0
KPD3 141559Z 36030G37KT 08/M07 A3012 RMK A01 T00801073  RH  033%=      5-min Rain = 0
KPD3 141600Z 00026KT 08/M07 A3012 RMK A01 T00811073  RH  033%=      5-min Rain = 0
KPD3 141601Z 36025G30KT 08/M07 A3012 RMK A01 T00821073  RH  032%=      5-min Rain = 0
KPD3 141602Z 36021G27KT 08/M07 A3012 RMK A01 T00831072  RH  033%=      5-min Rain = 0
KPD3 141603Z 36026G34KT 08/M07 A3013 RMK A01 T00841073  RH  032%=      5-min Rain = 0
KPD3 141604Z 36023G29KT 08/M07 A3013 RMK A01 T00841073  RH  032%=      5-min Rain = 0
KPD3 141605Z 00023KT 09/M07 A3013 RMK A01 T00861069  RH  033%=      5-min Rain = 0
KPD3 141606Z 35028G35KT 09/M07 A3013 RMK A01 T00871071  RH  032%=      5-min Rain = 0
KPD3 141607Z 36023G30KT 09/M07 A3013 RMK A01 T00851074  RH  032%=      5-min Rain = 0
KPD3 141608Z 36026KT 08/M07 A3013 RMK A01 T00841073  RH  032%=      5-min Rain = 0
KPD3 141609Z 36021G26KT 08/M07 A3013 RMK A01 T00831073  RH  032%=      5-min Rain = 0
KPD3 141610Z 36017G24KT 08/M07 A3013 RMK A01 T00831071  RH  033%=      5-min Rain = 0
KPD3 141611Z 36022KT 08/M07 A3013 RMK A01 T00841070  RH  033%=      5-min Rain = 0
KPD3 141612Z 00022G28KT 08/M07 A3013 RMK A01 T00841071  RH  033%=      5-min Rain = 0
KPD3 141613Z 35021G27KT 09/M07 A3013 RMK A01 T00851072  RH  032%=      5-min Rain = 0
KPD3 141614Z 36022G28KT 09/M07 A3013 RMK A01 T00861071  RH  032%=      5-min Rain = 0
KPD3 141615Z 00023KT 09/M07 A3013 RMK A01 T00871072  RH  032%=      5-min Rain = 0
KPD3 141616Z 35023KT 09/M07 A3013 RMK A01 T00881073  RH  031%=      5-min Rain = 0
KPD3 141617Z 36021G27KT 09/M07 A3013 RMK A01 T00881074  RH  031%=      5-min Rain = 0
KPD3 141618Z 00024G29KT 09/M07 A3013 RMK A01 T00881073  RH  031%=      5-min Rain = 0
KPD3 141619Z 36029G34KT 09/M08 A3013 RMK A01 T00871075  RH  031%=      5-min Rain = 0
KPD3 141620Z 36027G35KT 09/M08 A3013 RMK A01 T00861077  RH  031%=      5-min Rain = 0
KPD3 141621Z 00027G33KT 08/M08 A3013 RMK A01 T00841077  RH  031%=      5-min Rain = 0
KPD3 141622Z 35025KT 08/M08 A3014 RMK A01 T00841075  RH  032%=      5-min Rain = 0
KPD3 141623Z 36022G27KT 08/M08 A3014 RMK A01 T00841075  RH  032%=      5-min Rain = 0
KPD3 141624Z 36021KT 08/M08 A3014 RMK A01 T00841075  RH  032%=      5-min Rain = 0
KPD3 141625Z 35023KT 09/M07 A3014 RMK A01 T00851073  RH  032%=      5-min Rain = 0
KPD3 141626Z 00023KT 09/M07 A3014 RMK A01 T00861074  RH  031%=      5-min Rain = 0
KPD3 141627Z 36021G26KT 09/M07 A3014 RMK A01 T00871074  RH  031%=      5-min Rain = 0
KPD3 141628Z 36018KT 09/M07 A3014 RMK A01 T00891074  RH  031%=      5-min Rain = 0
KPD3 141629Z 35025G35KT 09/M07 A3014 RMK A01 T00901074  RH  031%=      5-min Rain = 0
KPD3 141630Z 35031G37KT 09/M08 A3014 RMK A01 T00911080  RH  029%=      5-min Rain = 0
KPD3 141631Z 35026G37KT 09/M08 A3015 RMK A01 T00901082  RH  029%=      5-min Rain = 0
KPD3 141632Z 35033G38KT 09/M08 A3015 RMK A01 T00901083  RH  029%=      5-min Rain = 0
KPD3 141633Z 00027G33KT 09/M09 A3015 RMK A01 T00901085  RH  028%=      5-min Rain = 0
KPD3 141634Z 00030G38KT 09/M08 A3015 RMK A01 T00901084  RH  028%=      5-min Rain = 0
KPD3 141635Z 00028G36KT 09/M09 A3015 RMK A01 T00901085  RH  028%=      5-min Rain = 0
KPD3 141636Z 01032G37KT 09/M09 A3015 RMK A01 T00901085  RH  028%=      5-min Rain = 0
KPD3 141637Z 36027G33KT 09/M09 A3015 RMK A01 T00901086  RH  028%=      5-min Rain = 0
KPD3 141638Z 36028G37KT 09/M09 A3015 RMK A01 T00911086  RH  028%=      5-min Rain = 0
KPD3 141639Z 36030G36KT 09/M09 A3015 RMK A01 T00911087  RH  027%=      5-min Rain = 0
KPD3 141640Z 35029G39KT 09/M09 A3015 RMK A01 T00911087  RH  028%=      5-min Rain = 0
KPD3 141641Z 36031KT 09/M09 A3016 RMK A01 T00911087  RH  028%=      5-min Rain = 0
KPD3 141642Z 35030G38KT 09/M09 A3016 RMK A01 T00901088  RH  027%=      5-min Rain = 0
KPD3 141643Z 00026G37KT 09/M09 A3016 RMK A01 T00901088  RH  027%=      5-min Rain = 0
KPD3 141644Z 01029G36KT 09/M09 A3016 RMK A01 T00901087  RH  028%=      5-min Rain = 0
KPD3 141645Z 01029G34KT 09/M09 A3016 RMK A01 T00901087  RH  028%=      5-min Rain = 0
KPD3 141646Z 00023G30KT 09/M09 A3016 RMK A01 T00901087  RH  028%=      5-min Rain = 0
KPD3 141647Z 00028KT 09/M09 A3016 RMK A01 T00901085  RH  028%=      5-min Rain = 0
KPD3 141648Z 36022KT 09/M09 A3016 RMK A01 T00911085  RH  028%=      5-min Rain = 0
KPD3 141649Z 00019KT 09/M08 A3016 RMK A01 T00921082  RH  028%=      5-min Rain = 0
KPD3 141650Z 36020KT 09/M08 A3016 RMK A01 T00941081  RH  028%=      5-min Rain = 0
KPD3 141651Z 36023KT 10/M08 A3016 RMK A01 T00951081  RH  028%=      5-min Rain = 0
KPD3 141652Z 36019G24KT 09/M08 A3016 RMK A01 T00941081  RH  028%=      5-min Rain = 0
KPD3 141653Z 36025KT 10/M08 A3016 RMK A01 T00961080  RH  028%=      5-min Rain = 0
KPD3 141654Z 00023G30KT 10/M08 A3016 RMK A01 T00951084  RH  027%=      5-min Rain = 0
KPD3 141655Z 35016KT 09/M08 A3016 RMK A01 T00941082  RH  028%=      5-min Rain = 0
KPD3 141656Z 35022KT 10/M08 A3016 RMK A01 T00961080  RH  028%=      5-min Rain = 0
KPD3 141657Z 01026G32KT 10/M08 A3016 RMK A01 T00961083  RH  027%=      5-min Rain = 0
KPD3 141658Z 00025KT 10/M09 A3016 RMK A01 T00961087  RH  027%=      5-min Rain = 0
KPD3 141659Z 00028G36KT 10/M09 A3016 RMK A01 T00961090  RH  026%=      5-min Rain = 0
KPD3 141700Z 36028G35KT 10/M09 A3016 RMK A01 T00961090  RH  026%=      5-min Rain = 0
KPD3 141701Z 00030KT 10/M09 A3017 RMK A01 T00961091  RH  026%=      5-min Rain = 0
KPD3 141702Z 00024G33KT 10/M09 A3017 RMK A01 T00961091  RH  026%=      5-min Rain = 0
KPD3 141703Z 00022G30KT 10/M09 A3017 RMK A01 T00971089  RH  026%=      5-min Rain = 0
KPD3 141704Z 36024G30KT 10/M09 A3017 RMK A01 T00971090  RH  026%=      5-min Rain = 0
KPD3 141705Z 35022G28KT 10/M09 A3017 RMK A01 T00971091  RH  026%=      5-min Rain = 0
KPD3 141706Z 35024KT 10/M09 A3016 RMK A01 T00971091  RH  026%=      5-min Rain = 0
KPD3 141707Z 00018G23KT 10/M09 A3017 RMK A01 T00971090  RH  026%=      5-min Rain = 0
KPD3 141708Z 00023G31KT 10/M09 A3016 RMK A01 T00981088  RH  026%=      5-min Rain = 0
KPD3 141709Z 00026G35KT 10/M09 A3016 RMK A01 T00971091  RH  026%=      5-min Rain = 0
KPD3 141710Z 01020G28KT 10/M09 A3016 RMK A01 T00951093  RH  026%=      5-min Rain = 0
KPD3 141711Z 01021G27KT 10/M09 A3016 RMK A01 T00951090  RH  026%=      5-min Rain = 0
KPD3 141712Z 01022KT 10/M09 A3016 RMK A01 T00961090  RH  026%=      5-min Rain = 0
KPD3 141713Z 00022G28KT 10/M09 A3016 RMK A01 T00961090  RH  026%=      5-min Rain = 0
KPD3 141714Z 01020G25KT 10/M09 A3017 RMK A01 T00951089  RH  026%=      5-min Rain = 0
KPD3 141715Z 01025G31KT 10/M09 A3017 RMK A01 T00961087  RH  027%=      5-min Rain = 0
KPD3 141716Z 01026G33KT 10/M09 A3017 RMK A01 T00961088  RH  026%=      5-min Rain = 0
KPD3 141717Z 01025KT 10/M09 A3017 RMK A01 T00951088  RH  026%=      5-min Rain = 0
KPD3 141718Z 01025G33KT 10/M09 A3017 RMK A01 T00951087  RH  027%=      5-min Rain = 0
KPD3 141719Z 01024G30KT 10/M09 A3016 RMK A01 T00951090  RH  026%=      5-min Rain = 0
KPD3 141720Z 01027G35KT 10/M09 A3016 RMK A01 T00951090  RH  026%=      5-min Rain = 0
KPD3 141721Z 00028KT 09/M09 A3017 RMK A01 T00941091  RH  026%=      5-min Rain = 0
KPD3 141722Z 36028KT 09/M10 A3017 RMK A01 T00941095  RH  025%=      5-min Rain = 0
KPD3 141723Z 00024G31KT 09/M10 A3017 RMK A01 T00921098  RH  025%=      5-min Rain = 0
KPD3 141724Z 01026G34KT 09/M10 A3016 RMK A01 T00921097  RH  025%=      5-min Rain = 0
KPD3 141725Z 01027KT 09/M10 A3017 RMK A01 T00921097  RH  025%=      5-min Rain = 0
KPD3 141726Z 01024G31KT 09/M10 A3017 RMK A01 T00921096  RH  025%=      5-min Rain = 0
KPD3 141727Z 01024G30KT 09/M09 A3017 RMK A01 T00921094  RH  026%=      5-min Rain = 0
KPD3 141728Z 01025KT 09/M09 A3017 RMK A01 T00921094  RH  026%=      5-min Rain = 0
KPD3 141729Z 01022G28KT 09/M09 A3017 RMK A01 T00911094  RH  026%=      5-min Rain = 0
KPD3 141730Z 00021KT 09/M09 A3017 RMK A01 T00911093  RH  026%=      5-min Rain = 0
KPD3 141731Z 00017G22KT 09/M09 A3017 RMK A01 T00921091  RH  026%=      5-min Rain = 0
KPD3 141732Z 00022G29KT 10/M09 A3017 RMK A01 T00951089  RH  026%=      5-min Rain = 0
KPD3 141733Z 36021G27KT 10/M09 A3017 RMK A01 T00961091  RH  026%=      5-min Rain = 0
KPD3 141734Z 35024G30KT 10/M09 A3017 RMK A01 T00971092  RH  025%=      5-min Rain = 0
KPD3 141735Z 00022KT 10/M09 A3017 RMK A01 T00971094  RH  025%=      5-min Rain = 0
KPD3 141736Z 35023G33KT 10/M09 A3016 RMK A01 T00981094  RH  025%=      5-min Rain = 0
KPD3 141737Z 35029G38KT 10/M10 A3016 RMK A01 T01001095  RH  024%=      5-min Rain = 0
KPD3 141738Z 35025G31KT 10/M10 A3016 RMK A01 T00981098  RH  024%=      5-min Rain = 0
KPD3 141739Z 35025G32KT 10/M10 A3016 RMK A01 T00981096  RH  024%=      5-min Rain = 0
KPD3 141740Z 35024G31KT 10/M10 A3016 RMK A01 T00981097  RH  024%=      5-min Rain = 0
KPD3 141741Z 35028G34KT 10/M10 A3016 RMK A01 T00981096  RH  024%=      5-min Rain = 0
KPD3 141742Z 35030G35KT 10/M10 A3016 RMK A01 T00981097  RH  024%=      5-min Rain = 0
KPD3 141743Z 35026G33KT 10/M10 A3016 RMK A01 T00961099  RH  024%=      5-min Rain = 0
KPD3 141744Z 00022G30KT 10/M09 A3016 RMK A01 T00961094  RH  025%=      5-min Rain = 0
KPD3 141745Z 00028KT 10/M09 A3016 RMK A01 T00981094  RH  025%=      5-min Rain = 0
KPD3 141746Z 01025G30KT 10/M10 A3016 RMK A01 T00981095  RH  024%=      5-min Rain = 0
KPD3 141747Z 00025G31KT 10/M10 A3016 RMK A01 T00981095  RH  025%=      5-min Rain = 0
KPD3 141748Z 35023G29KT 10/M10 A3016 RMK A01 T00981095  RH  025%=      5-min Rain = 0
KPD3 141749Z 35024G29KT 10/M09 A3016 RMK A01 T01001094  RH  025%=      5-min Rain = 0
KPD3 141750Z 36023G30KT 10/M10 A3016 RMK A01 T00991096  RH  024%=      5-min Rain = 0
KPD3 141751Z 35024G30KT 10/M09 A3016 RMK A01 T01001094  RH  024%=      5-min Rain = 0
KPD3 141752Z 36022G27KT 10/M10 A3016 RMK A01 T01001095  RH  024%=      5-min Rain = 0
KPD3 141753Z 36022G30KT 10/M09 A3016 RMK A01 T01011092  RH  025%=      5-min Rain = 0
KPD3 141754Z 36023G28KT 10/M09 A3016 RMK A01 T01021093  RH  024%=      5-min Rain = 0
KPD3 141755Z 35022G27KT 10/M09 A3016 RMK A01 T01021091  RH  025%=      5-min Rain = 0
KPD3 141756Z 36027G35KT 10/M09 A3016 RMK A01 T01031093  RH  024%=      5-min Rain = 0
KPD3 141757Z 35026G32KT 10/M09 A3016 RMK A01 T01011094  RH  024%=      5-min Rain = 0
KPD3 141758Z 36027KT 10/M10 A3015 RMK A01 T01011095  RH  024%=      5-min Rain = 0
KPD3 141759Z 36027KT 10/M10 A3015 RMK A01 T00991095  RH  024%=      5-min Rain = 0
KPD3 141800Z 35023KT 10/M10 A3016 RMK A01 T00991095  RH  025%=      5-min Rain = 0
KPD3 141801Z 35020KT 10/M09 A3015 RMK A01 T01001092  RH  025%=      5-min Rain = 0
KPD3 141802Z 35019G25KT 10/M09 A3016 RMK A01 T01021090  RH  025%=      5-min Rain = 0
KPD3 141803Z 36018G23KT 11/M09 A3016 RMK A01 T01051089  RH  025%=      5-min Rain = 0
KPD3 141804Z 35024KT 11/M09 A3015 RMK A01 T01061090  RH  024%=      5-min Rain = 0
KPD3 141805Z 36026G35KT 11/M09 A3015 RMK A01 T01051094  RH  024%=      5-min Rain = 0
KPD3 141806Z 36025G30KT 10/M10 A3015 RMK A01 T01021098  RH  023%=      5-min Rain = 0
KPD3 141807Z 35026KT 10/M10 A3015 RMK A01 T01011097  RH  024%=      5-min Rain = 0
KPD3 141808Z 00028KT 10/M10 A3015 RMK A01 T01011096  RH  024%=      5-min Rain = 0
KPD3 141809Z 36022G29KT 10/M10 A3015 RMK A01 T01001097  RH  024%=      5-min Rain = 0
KPD3 141810Z 35023G28KT 10/M09 A3015 RMK A01 T01011094  RH  024%=      5-min Rain = 0
KPD3 141811Z 00021G27KT 10/M10 A3015 RMK A01 T01011095  RH  024%=      5-min Rain = 0
KPD3 141812Z 00026G31KT 10/M10 A3015 RMK A01 T01021096  RH  024%=      5-min Rain = 0
KPD3 141813Z 00024G29KT 10/M10 A3015 RMK A01 T01021097  RH  024%=      5-min Rain = 0
KPD3 141814Z 36026G31KT 10/M10 A3014 RMK A01 T01011097  RH  024%=      5-min Rain = 0
KPD3 141815Z 01024KT 10/M10 A3014 RMK A01 T01011098  RH  024%=      5-min Rain = 0
KPD3 141816Z 00023KT 10/M10 A3014 RMK A01 T01011098  RH  024%=      5-min Rain = 0
KPD3 141817Z 36024KT 10/M10 A3014 RMK A01 T01011097  RH  024%=      5-min Rain = 0
KPD3 141818Z 01024KT 10/M10 A3014 RMK A01 T01011095  RH  024%=      5-min Rain = 0
KPD3 141819Z 36023KT 10/M09 A3014 RMK A01 T01021094  RH  024%=      5-min Rain = 0
KPD3 141820Z 36024G29KT 10/M10 A3014 RMK A01 T01021095  RH  024%=      5-min Rain = 0
KPD3 141821Z 00025G30KT 10/M10 A3014 RMK A01 T01011095  RH  024%=      5-min Rain = 0
KPD3 141822Z 36023G29KT 10/M10 A3014 RMK A01 T01001095  RH  024%=      5-min Rain = 0
KPD3 141823Z 36019KT 10/M10 A3014 RMK A01 T00991096  RH  024%=      5-min Rain = 0
KPD3 141824Z 34022G28KT 10/M09 A3014 RMK A01 T01001093  RH  025%=      5-min Rain = 0
KPD3 141825Z 34021KT 10/M09 A3014 RMK A01 T01021093  RH  024%=      5-min Rain = 0
KPD3 141826Z 35016KT 10/M09 A3014 RMK A01 T01021093  RH  024%=      5-min Rain = 0
KPD3 141827Z 35018G25KT 11/M09 A3014 RMK A01 T01051089  RH  025%=      5-min Rain = 0
KPD3 141828Z 36023G29KT 11/M09 A3014 RMK A01 T01071093  RH  024%=      5-min Rain = 0
KPD3 141829Z 36025KT 11/M10 A3014 RMK A01 T01051099  RH  023%=      5-min Rain = 0
KPD3 141830Z 35021KT 10/M10 A3014 RMK A01 T01041098  RH  023%=      5-min Rain = 0
KPD3 141831Z 35019KT 10/M10 A3013 RMK A01 T01041095  RH  024%=      5-min Rain = 0
KPD3 141832Z 35015G20KT 11/M09 A3013 RMK A01 T01051094  RH  024%=      5-min Rain = 0
KPD3 141833Z 36019G24KT 11/M09 A3013 RMK A01 T01081091  RH  024%=      5-min Rain = 0
KPD3 141834Z 35019KT 11/M09 A3013 RMK A01 T01091094  RH  023%=      5-min Rain = 0
KPD3 141835Z 35016KT 11/M10 A3013 RMK A01 T01051097  RH  023%=      5-min Rain = 0
KPD3 141836Z 00020G26KT 11/M09 A3013 RMK A01 T01051094  RH  024%=      5-min Rain = 0
KPD3 141837Z 36024KT 11/M10 A3013 RMK A01 T01061096  RH  023%=      5-min Rain = 0
KPD3 141838Z 35021KT 11/M10 A3013 RMK A01 T01061097  RH  023%=      5-min Rain = 0
KPD3 141839Z 35023G28KT 11/M10 A3013 RMK A01 T01061097  RH  023%=      5-min Rain = 0
KPD3 141840Z 35019G24KT 11/M10 A3013 RMK A01 T01061096  RH  023%=      5-min Rain = 0
KPD3 141841Z 35018KT 11/M10 A3013 RMK A01 T01061095  RH  023%=      5-min Rain = 0
KPD3 141842Z 36017KT 11/M10 A3013 RMK A01 T01061095  RH  023%=      5-min Rain = 0
KPD3 141843Z 00020G26KT 11/M09 A3013 RMK A01 T01081094  RH  023%=      5-min Rain = 0
KPD3 141844Z 00025KT 11/M10 A3012 RMK A01 T01101097  RH  022%=      5-min Rain = 0
KPD3 141845Z 36021KT 11/M10 A3012 RMK A01 T01071102  RH  022%=      5-min Rain = 0
KPD3 141846Z 36021KT 11/M10 A3012 RMK A01 T01061101  RH  022%=      5-min Rain = 0
KPD3 141847Z 00021G27KT 11/M10 A3013 RMK A01 T01071100  RH  022%=      5-min Rain = 0
KPD3 141848Z 01022G27KT 11/M10 A3012 RMK A01 T01071100  RH  022%=      5-min Rain = 0
KPD3 141849Z 01023KT 11/M10 A3012 RMK A01 T01061101  RH  022%=      5-min Rain = 0
KPD3 141850Z 01022KT 11/M10 A3012 RMK A01 T01051102  RH  022%=      5-min Rain = 0
KPD3 141851Z 00017KT 11/M10 A3012 RMK A01 T01051100  RH  023%=      5-min Rain = 0
KPD3 141852Z 35021KT 11/M10 A3012 RMK A01 T01081096  RH  023%=      5-min Rain = 0
KPD3 141853Z 35026G32KT 11/M10 A3012 RMK A01 T01091097  RH  023%=      5-min Rain = 0
KPD3 141854Z 35024G29KT 11/M10 A3011 RMK A01 T01071101  RH  022%=      5-min Rain = 0
KPD3 141855Z 01023KT 11/M10 A3012 RMK A01 T01061102  RH  022%=      5-min Rain = 0
KPD3 141856Z 00025G31KT 11/M10 A3012 RMK A01 T01071102  RH  022%=      5-min Rain = 0
KPD3 141857Z 36026KT 11/M10 A3011 RMK A01 T01071104  RH  022%=      5-min Rain = 0
KPD3 141858Z 00028KT 11/M11 A3011 RMK A01 T01061105  RH  022%=      5-min Rain = 0
KPD3 141859Z 01023KT 11/M10 A3012 RMK A01 T01051104  RH  022%=      5-min Rain = 0
KPD3 141900Z 00020G30KT 11/M10 A3011 RMK A01 T01061103  RH  022%=      5-min Rain = 0
KPD3 141901Z 01025KT 11/M10 A3011 RMK A01 T01071102  RH  022%=      5-min Rain = 0
KPD3 141902Z 01024G29KT 11/M10 A3011 RMK A01 T01071104  RH  022%=      5-min Rain = 0
KPD3 141903Z 01025KT 11/M10 A3011 RMK A01 T01071104  RH  022%=      5-min Rain = 0
KPD3 141904Z 00022G27KT 11/M10 A3011 RMK A01 T01061102  RH  022%=      5-min Rain = 0
KPD3 141905Z 35022G27KT 11/M10 A3011 RMK A01 T01081099  RH  022%=      5-min Rain = 0
KPD3 141906Z 34023KT 11/M10 A3011 RMK A01 T01081102  RH  022%=      5-min Rain = 0
KPD3 141907Z 34020G25KT 11/M10 A3011 RMK A01 T01061103  RH  022%=      5-min Rain = 0
KPD3 141908Z 35024KT 11/M10 A301 RMK A01 T01071102  RH  022%=      5-min Rain = 0
KPD3 141909Z 35022G27KT 11/M10 A301 RMK A01 T01081102  RH  022%=      5-min Rain = 0
KPD3 141910Z 34022KT 11/M10 A3011 RMK A01 T01071102  RH  022%=      5-min Rain = 0
KPD3 141911Z 35021KT 11/M10 A3011 RMK A01 T01071104  RH  022%=      5-min Rain = 0
KPD3 141912Z 35020KT 11/M10 A301 RMK A01 T01061103  RH  022%=      5-min Rain = 0
KPD3 141913Z 35020KT 11/M10 A3011 RMK A01 T01081099  RH  022%=      5-min Rain = 0
KPD3 141914Z 34022G27KT 11/M10 A301 RMK A01 T01091099  RH  022%=      5-min Rain = 0
KPD3 141915Z 35019G27KT 11/M10 A301 RMK A01 T01081099  RH  022%=      5-min Rain = 0
KPD3 141916Z 36022KT 11/M10 A301 RMK A01 T01091098  RH  022%=      5-min Rain = 0
KPD3 141917Z 00021KT 11/M10 A301 RMK A01 T01071101  RH  022%=      5-min Rain = 0
KPD3 141918Z 00021KT 11/M10 A301 RMK A01 T01071099  RH  023%=      5-min Rain = 0
KPD3 141919Z 01021KT 11/M10 A301 RMK A01 T01081098  RH  022%=      5-min Rain = 0
KPD3 141920Z 00022G27KT 11/M10 A301 RMK A01 T01091098  RH  022%=      5-min Rain = 0
KPD3 141921Z 36022G27KT 11/M10 A301 RMK A01 T01101098  RH  022%=      5-min Rain = 0
KPD3 141922Z 36021KT 11/M10 A301 RMK A01 T01091098  RH  022%=      5-min Rain = 0
KPD3 141923Z 00020KT 11/M10 A301 RMK A01 T01081098  RH  022%=      5-min Rain = 0
KPD3 141924Z 36018KT 11/M10 A301 RMK A01 T01071099  RH  023%=      5-min Rain = 0
KPD3 141925Z 36022G28KT 11/M10 A301 RMK A01 T01061101  RH  022%=      5-min Rain = 0
KPD3 141926Z 35024G31KT 11/M11 A3009 RMK A01 T01071106  RH  021%=      5-min Rain = 0
KPD3 141927Z 00025G31KT 11/M11 A3009 RMK A01 T01071108  RH  021%=      5-min Rain = 0
KPD3 141928Z 36023KT 11/M11 A3009 RMK A01 T01081110  RH  020%=      5-min Rain = 0
KPD3 141929Z 36024KT 11/M11 A3009 RMK A01 T01071111  RH  020%=      5-min Rain = 0
KPD3 141930Z 36023G28KT 11/M11 A3009 RMK A01 T01081110  RH  021%=      5-min Rain = 0
KPD3 141931Z 36025G30KT 11/M11 A3009 RMK A01 T01081111  RH  020%=      5-min Rain = 0
KPD3 141932Z 35024G31KT 11/M11 A3009 RMK A01 T01081113  RH  020%=      5-min Rain = 0
KPD3 141933Z 35022KT 11/M11 A3009 RMK A01 T01071113  RH  020%=      5-min Rain = 0
KPD3 141934Z 36022KT 11/M11 A3009 RMK A01 T01081112  RH  020%=      5-min Rain = 0
KPD3 141935Z 36022KT 11/M11 A3009 RMK A01 T01091111  RH  020%=      5-min Rain = 0
KPD3 141936Z 36021G26KT 11/M11 A3009 RMK A01 T01081110  RH  020%=      5-min Rain = 0
KPD3 141937Z 35021KT 11/M11 A3009 RMK A01 T01071111  RH  020%=      5-min Rain = 0
KPD3 141938Z 36020G25KT 11/M11 A3009 RMK A01 T01061112  RH  020%=      5-min Rain = 0
KPD3 141939Z 00018KT 11/M11 A3009 RMK A01 T01071114  RH  020%=      5-min Rain = 0
KPD3 141940Z 35018KT 11/M11 A301 RMK A01 T01091112  RH  020%=      5-min Rain = 0
KPD3 141941Z 34023KT 11/M12 A301 RMK A01 T01111115  RH  019%=      5-min Rain = 0
KPD3 141942Z 34023G28KT 11/M12 A301 RMK A01 T01101118  RH  019%=      5-min Rain = 0
KPD3 141943Z 35020G25KT 11/M12 A301 RMK A01 T01091118  RH  019%=      5-min Rain = 0
KPD3 141944Z 35021G26KT 11/M12 A301 RMK A01 T01091117  RH  019%=      5-min Rain = 0
KPD3 141945Z 34021KT 11/M12 A301 RMK A01 T01091117  RH  019%=      5-min Rain = 0
KPD3 141946Z 34020KT 11/M12 A301 RMK A01 T01091117  RH  019%=      5-min Rain = 0
KPD3 141947Z 35020G28KT 11/M12 A301 RMK A01 T01091118  RH  019%=      5-min Rain = 0
KPD3 141948Z 34017G22KT 11/M12 A301 RMK A01 T01081119  RH  019%=      5-min Rain = 0
KPD3 141949Z 00020KT 11/M12 A3009 RMK A01 T01091118  RH  019%=      5-min Rain = 0
KPD3 141950Z 01018KT 11/M12 A3009 RMK A01 T01121117  RH  019%=      5-min Rain = 0
KPD3 141951Z 00017KT 11/M12 A3009 RMK A01 T01131121  RH  018%=      5-min Rain = 0
KPD3 141952Z 01020G27KT 11/M12 A3009 RMK A01 T01141121  RH  018%=      5-min Rain = 0
KPD3 141953Z 35021G26KT 11/M12 A3009 RMK A01 T01131123  RH  018%=      5-min Rain = 0
KPD3 141954Z 00023G29KT 11/M13 A3009 RMK A01 T01111126  RH  018%=      5-min Rain = 0
KPD3 141955Z 01023G28KT 11/M12 A3009 RMK A01 T01101124  RH  018%=      5-min Rain = 0
KPD3 141956Z 01020KT 11/M13 A3009 RMK A01 T01091126  RH  018%=      5-min Rain = 0
KPD3 141957Z 01019KT 11/M13 A3009 RMK A01 T01081126  RH  018%=      5-min Rain = 0
KPD3 141958Z 01020G28KT 11/M13 A3009 RMK A01 T01071127  RH  018%=      5-min Rain = 0
KPD3 141959Z 35022KT 11/M12 A3008 RMK A01 T01091124  RH  018%=      5-min Rain = 0
KPD3 142000Z 35022KT 11/M13 A3008 RMK A01 T01101126  RH  018%=      5-min Rain = 0
KPD3 142001Z 34021KT 11/M13 A3008 RMK A01 T01091127  RH  018%=      5-min Rain = 0
KPD3 142002Z 34019G25KT 11/M13 A3008 RMK A01 T01091129  RH  017%=      5-min Rain = 0
KPD3 142003Z 34019KT 11/M13 A3008 RMK A01 T01081131  RH  017%=      5-min Rain = 0
KPD3 142004Z 35015G21KT 11/M13 A3008 RMK A01 T01091131  RH  017%=      5-min Rain = 0
KPD3 142005Z 35019KT 11/M13 A3008 RMK A01 T01111130  RH  017%=      5-min Rain = 0
KPD3 142006Z 35017G22KT 11/M13 A3008 RMK A01 T01121130  RH  017%=      5-min Rain = 0
KPD3 142007Z 35018KT 11/M13 A3008 RMK A01 T01121131  RH  017%=      5-min Rain = 0
KPD3 142008Z 35016KT 11/M13 A3008 RMK A01 T01111134  RH  017%=      5-min Rain = 0
KPD3 142009Z 35013G19KT 11/M13 A3008 RMK A01 T01101134  RH  017%=      5-min Rain = 0
KPD3 142010Z 01015G21KT 11/M13 A3008 RMK A01 T01131129  RH  017%=      5-min Rain = 0
KPD3 142011Z 36015KT 12/M13 A3008 RMK A01 T01151133  RH  016%=      5-min Rain = 0
KPD3 142012Z 02019KT 12/M13 A3008 RMK A01 T01151133  RH  016%=      5-min Rain = 0
KPD3 142013Z 01018KT 12/M13 A3008 RMK A01 T01151134  RH  016%=      5-min Rain = 0
KPD3 142014Z 00020KT 11/M13 A3008 RMK A01 T01141134  RH  016%=      5-min Rain = 0
KPD3 142015Z 01019G24KT 11/M14 A3008 RMK A01 T01111139  RH  016%=      5-min Rain = 0
KPD3 142016Z 02017KT 11/M14 A3008 RMK A01 T01101141  RH  016%=      5-min Rain = 0
KPD3 142017Z 01020KT 11/M14 A3008 RMK A01 T01111141  RH  016%=      5-min Rain = 0
KPD3 142018Z 35019KT 11/M14 A3008 RMK A01 T01131138  RH  016%=      5-min Rain = 0
KPD3 142019Z 35020KT 11/M14 A3008 RMK A01 T01101140  RH  016%=      5-min Rain = 0
KPD3 142020Z 35017KT 11/M14 A3008 RMK A01 T01081140  RH  016%=      5-min Rain = 0
KPD3 142021Z 35012G17KT 11/M14 A3008 RMK A01 T01081140  RH  016%=      5-min Rain = 0
KPD3 142022Z 34017KT 11/M14 A3008 RMK A01 T01101136  RH  016%=      5-min Rain = 0
KPD3 142023Z 35014KT 11/M14 A3008 RMK A01 T01121136  RH  016%=      5-min Rain = 0
KPD3 142024Z 00016KT 11/M14 A3008 RMK A01 T01111140  RH  016%=      5-min Rain = 0
KPD3 142025Z 01020KT 11/M14 A3008 RMK A01 T01111140  RH  016%=      5-min Rain = 0
KPD3 142026Z 01022KT 11/M15 A3008 RMK A01 T01121145  RH  015%=      5-min Rain = 0
KPD3 142027Z 36017KT 11/M15 A3008 RMK A01 T01101147  RH  015%=      5-min Rain = 0
KPD3 142028Z 00016G22KT 11/M15 A3008 RMK A01 T01101145  RH  015%=      5-min Rain = 0
KPD3 142029Z 01018KT 11/M14 A3008 RMK A01 T01111144  RH  015%=      5-min Rain = 0
KPD3 142030Z 35020KT 11/M15 A3008 RMK A01 T01111145  RH  015%=      5-min Rain = 0
KPD3 142031Z 36020KT 11/M15 A3008 RMK A01 T01111151  RH  014%=      5-min Rain = 0
KPD3 142032Z 00020KT 11/M15 A3008 RMK A01 T01111154  RH  014%=      5-min Rain = 0
KPD3 142033Z 00016G23KT 11/M16 A3008 RMK A01 T01111156  RH  014%=      5-min Rain = 0
KPD3 142034Z 36019G25KT 11/M16 A3008 RMK A01 T01111155  RH  014%=      5-min Rain = 0
KPD3 142035Z 34019KT 11/M16 A3008 RMK A01 T01111157  RH  014%=      5-min Rain = 0
KPD3 142036Z 36018KT 11/M15 A3008 RMK A01 T01111154  RH  014%=      5-min Rain = 0
KPD3 142037Z 01014KT 11/M15 A3008 RMK A01 T01121151  RH  014%=      5-min Rain = 0
KPD3 142038Z 01017KT 11/M15 A3008 RMK A01 T01121149  RH  014%=      5-min Rain = 0
KPD3 142039Z 01016KT 11/M15 A3008 RMK A01 T01121151  RH  014%=      5-min Rain = 0
KPD3 142040Z 00014KT 11/M15 A3008 RMK A01 T01121149  RH  015%=      5-min Rain = 0
KPD3 142041Z 35012KT 11/M15 A3008 RMK A01 T01141149  RH  014%=      5-min Rain = 0
KPD3 142042Z 35013KT 12/M15 A3008 RMK A01 T01161152  RH  014%=      5-min Rain = 0
KPD3 142043Z 35019KT 12/M16 A3008 RMK A01 T01171158  RH  013%=      5-min Rain = 0
KPD3 142044Z 35021G26KT 12/M16 A3008 RMK A01 T01151163  RH  013%=      5-min Rain = 0
KPD3 142045Z 35020KT 11/M17 A3008 RMK A01 T01131168  RH  012%=      5-min Rain = 0
KPD3 142046Z 34019G24KT 11/M17 A3008 RMK A01 T01121169  RH  012%=      5-min Rain = 0
KPD3 142047Z 35016KT 11/M17 A3008 RMK A01 T01121168  RH  012%=      5-min Rain = 0
KPD3 142048Z 35018G25KT 11/M16 A3008 RMK A01 T01121164  RH  013%=      5-min Rain = 0
KPD3 142049Z 35018KT 11/M16 A3008 RMK A01 T01121163  RH  013%=      5-min Rain = 0
KPD3 142050Z 35016KT 11/M16 A3008 RMK A01 T01111162  RH  013%=      5-min Rain = 0
KPD3 142051Z 36015G20KT 11/M16 A3008 RMK A01 T01111163  RH  013%=      5-min Rain = 0
KPD3 142052Z 36018G24KT 11/M16 A3008 RMK A01 T01101163  RH  013%=      5-min Rain = 0
KPD3 142053Z 36018KT 11/M16 A3008 RMK A01 T01111163  RH  013%=      5-min Rain = 0
KPD3 142054Z 01019KT 11/M17 A3008 RMK A01 T01101165  RH  013%=      5-min Rain = 0
KPD3 142055Z 01017KT 11/M17 A3008 RMK A01 T01091166  RH  013%=      5-min Rain = 0
KPD3 142056Z 02017KT 11/M17 A3008 RMK A01 T01091167  RH  013%=      5-min Rain = 0
KPD3 142057Z 01015KT 11/M17 A3008 RMK A01 T01091167  RH  013%=      5-min Rain = 0
KPD3 142058Z 01017KT 11/M17 A3009 RMK A01 T01101168  RH  013%=      5-min Rain = 0
KPD3 142059Z 36016G21KT 11/M16 A3009 RMK A01 T01111163  RH  013%=      5-min Rain = 0
KPD3 142100Z 33012KT 11/M16 A3009 RMK A01 T01141159  RH  013%=      5-min Rain = 0
KPD3 142101Z 34013KT 12/M16 A3008 RMK A01 T01151162  RH  013%=      5-min Rain = 0
KPD3 142102Z 01015KT 11/M16 A3008 RMK A01 T01141162  RH  013%=      5-min Rain = 0
KPD3 142103Z 36018G23KT 11/M16 A3008 RMK A01 T01141163  RH  013%=      5-min Rain = 0
KPD3 142104Z 35015KT 11/M17 A3008 RMK A01 T01121167  RH  013%=      5-min Rain = 0
KPD3 142105Z 35015G20KT 11/M17 A3008 RMK A01 T01111166  RH  013%=      5-min Rain = 0
KPD3 142106Z 35014G20KT 11/M16 A3008 RMK A01 T01121162  RH  013%=      5-min Rain = 0
KPD3 142107Z 00019KT 11/M16 A3008 RMK A01 T01141161  RH  013%=      5-min Rain = 0
KPD3 142108Z 36019KT 11/M17 A3008 RMK A01 T01131165  RH  013%=      5-min Rain = 0
KPD3 142109Z 35022KT 11/M17 A3008 RMK A01 T01111168  RH  013%=      5-min Rain = 0
KPD3 142110Z 35020KT 11/M17 A3008 RMK A01 T01081170  RH  013%=      5-min Rain = 0
KPD3 142111Z 35016G21KT 11/M17 A3008 RMK A01 T01071170  RH  013%=      5-min Rain = 0
KPD3 142112Z 35018KT 11/M17 A3008 RMK A01 T01071169  RH  013%=      5-min Rain = 0
KPD3 142113Z 35016KT 11/M17 A3008 RMK A01 T01081169  RH  013%=      5-min Rain = 0
KPD3 142114Z 35017KT 11/M17 A3008 RMK A01 T01091168  RH  013%=      5-min Rain = 0
KPD3 142115Z 34017KT 11/M17 A3008 RMK A01 T01101166  RH  013%=      5-min Rain = 0
KPD3 142116Z 34018KT 11/M17 A3008 RMK A01 T01101166  RH  013%=      5-min Rain = 0
KPD3 142117Z 34017KT 11/M17 A3008 RMK A01 T01091168  RH  013%=      5-min Rain = 0
KPD3 142118Z 35014KT 11/M17 A3008 RMK A01 T01081170  RH  012%=      5-min Rain = 0
KPD3 142119Z 35013KT 11/M17 A3008 RMK A01 T01081170  RH  013%=      5-min Rain = 0
KPD3 142120Z 36015KT 11/M17 A3009 RMK A01 T01091168  RH  013%=      5-min Rain = 0
KPD3 142121Z 34014KT 11/M17 A3009 RMK A01 T01091169  RH  013%=      5-min Rain = 0
KPD3 142122Z 34012KT 11/M17 A3009 RMK A01 T01091168  RH  013%=      5-min Rain = 0
KPD3 142123Z 36013KT 11/M17 A3009 RMK A01 T01071166  RH  013%=      5-min Rain = 0
KPD3 142124Z 00014KT 11/M16 A3009 RMK A01 T01091163  RH  013%=      5-min Rain = 0
KPD3 142125Z 35014KT 11/M17 A3009 RMK A01 T01091165  RH  013%=      5-min Rain = 0
KPD3 142126Z 36016KT 11/M16 A3009 RMK A01 T01091164  RH  013%=      5-min Rain = 0
KPD3 142127Z 35017KT 11/M16 A3009 RMK A01 T01101164  RH  013%=      5-min Rain = 0
KPD3 142128Z 36015KT 11/M17 A3009 RMK A01 T01101167  RH  013%=      5-min Rain = 0
KPD3 142129Z 35013KT 11/M17 A3009 RMK A01 T01091171  RH  012%=      5-min Rain = 0
KPD3 142130Z 01015KT 11/M17 A3009 RMK A01 T01091171  RH  012%=      5-min Rain = 0
KPD3 142131Z 01018KT 11/M17 A3008 RMK A01 T01101171  RH  012%=      5-min Rain = 0
KPD3 142132Z 35017KT 11/M17 A3009 RMK A01 T01101173  RH  012%=      5-min Rain = 0
KPD3 142133Z 35017KT 11/M17 A3009 RMK A01 T01091173  RH  012%=      5-min Rain = 0
KPD3 142134Z 35017KT 11/M18 A3009 RMK A01 T01091176  RH  012%=      5-min Rain = 0
KPD3 142135Z 34014KT 11/M18 A3008 RMK A01 T01081178  RH  012%=      5-min Rain = 0
KPD3 142136Z 34014KT 11/M17 A3008 RMK A01 T01081174  RH  012%=      5-min Rain = 0
KPD3 142137Z 34014KT 11/M17 A3009 RMK A01 T01091173  RH  012%=      5-min Rain = 0
KPD3 142138Z 34015KT 11/M17 A3009 RMK A01 T01091174  RH  012%=      5-min Rain = 0
KPD3 142139Z 34017KT 11/M18 A3009 RMK A01 T01091175  RH  012%=      5-min Rain = 0
KPD3 142140Z 35019KT 11/M18 A3009 RMK A01 T01091178  RH  012%=      5-min Rain = 0
KPD3 142141Z 36017G22KT 11/M18 A3009 RMK A01 T01081181  RH  011%=      5-min Rain = 0
KPD3 142142Z 36018KT 11/M18 A3009 RMK A01 T01071182  RH  011%=      5-min Rain = 0
KPD3 142143Z 01018KT 11/M18 A3009 RMK A01 T01071178  RH  012%=      5-min Rain = 0
KPD3 142144Z 01016KT 11/M18 A3009 RMK A01 T01071177  RH  012%=      5-min Rain = 0
KPD3 142145Z 01015KT 11/M18 A3009 RMK A01 T01071178  RH  012%=      5-min Rain = 0
KPD3 142146Z 36017KT 11/M18 A3009 RMK A01 T01061178  RH  012%=      5-min Rain = 0
KPD3 142147Z 00014G19KT 11/M18 A3009 RMK A01 T01061178  RH  012%=      5-min Rain = 0
KPD3 142148Z 01011KT 11/M18 A3009 RMK A01 T01061178  RH  012%=      5-min Rain = 0
KPD3 142149Z 00012KT 11/M18 A3009 RMK A01 T01061178  RH  012%=      5-min Rain = 0
KPD3 142150Z 35012KT 11/M18 A3009 RMK A01 T01061179  RH  012%=      5-min Rain = 0
KPD3 142151Z 35009KT 11/M18 A3009 RMK A01 T01061177  RH  012%=      5-min Rain = 0
KPD3 142152Z 34009G14KT 11/M18 A3009 RMK A01 T01071175  RH  012%=      5-min Rain = 0
KPD3 142153Z 34011KT 11/M18 A3009 RMK A01 T01091175  RH  012%=      5-min Rain = 0
KPD3 142154Z 35010KT 11/M18 A3009 RMK A01 T01081177  RH  012%=      5-min Rain = 0
KPD3 142155Z 35010KT 11/M18 A3008 RMK A01 T01081175  RH  012%=      5-min Rain = 0
KPD3 142156Z 34011KT 11/M17 A3008 RMK A01 T01061174  RH  012%=      5-min Rain = 0
KPD3 142157Z 33013KT 11/M17 A3008 RMK A01 T01061173  RH  012%=      5-min Rain = 0
KPD3 142158Z 33014KT 11/M17 A3008 RMK A01 T01061173  RH  012%=      5-min Rain = 0
KPD3 142159Z 33011KT 11/M17 A3008 RMK A01 T01051174  RH  012%=      5-min Rain = 0
KPD3 142200Z 34011KT 10/M18 A3008 RMK A01 T01041175  RH  012%=      5-min Rain = 0
KPD3 142201Z 35011KT 10/M18 A3008 RMK A01 T01031175  RH  012%=      5-min Rain = 0
KPD3 142202Z 01010KT 10/M17 A3008 RMK A01 T01021174  RH  013%=      5-min Rain = 0
KPD3 142203Z 01013KT 10/M17 A3008 RMK A01 T01021174  RH  013%=      5-min Rain = 0
KPD3 142204Z 00011KT 10/M18 A3008 RMK A01 T01031177  RH  012%=      5-min Rain = 0
KPD3 142205Z 35012KT 10/M17 A3008 RMK A01 T01031174  RH  012%=      5-min Rain = 0
KPD3 142206Z 36011KT 10/M17 A3008 RMK A01 T01041174  RH  012%=      5-min Rain = 0
KPD3 142207Z 35011KT 11/M17 A3008 RMK A01 T01051174  RH  012%=      5-min Rain = 0
KPD3 142208Z 35012KT 11/M17 A3008 RMK A01 T01051174  RH  012%=      5-min Rain = 0
KPD3 142209Z 35010KT 11/M18 A3008 RMK A01 T01051176  RH  012%=      5-min Rain = 0
KPD3 142210Z 34013KT 11/M17 A3008 RMK A01 T01061172  RH  012%=      5-min Rain = 0
KPD3 142211Z 34013KT 11/M17 A3008 RMK A01 T01071171  RH  013%=      5-min Rain = 0
KPD3 142212Z 34011KT 11/M18 A3008 RMK A01 T01061175  RH  012%=      5-min Rain = 0
KPD3 142213Z 34010KT 11/M17 A3008 RMK A01 T01071172  RH  012%=      5-min Rain = 0
KPD3 142214Z 35011KT 11/M17 A3008 RMK A01 T01071173  RH  012%=      5-min Rain = 0
KPD3 142215Z 35009KT 11/M17 A3008 RMK A01 T01071174  RH  012%=      5-min Rain = 0
KPD3 142216Z 35009KT 11/M17 A3008 RMK A01 T01071174  RH  012%=      5-min Rain = 0
KPD3 142217Z 35013KT 11/M17 A3008 RMK A01 T01061174  RH  012%=      5-min Rain = 0
KPD3 142218Z 35012KT 10/M18 A3008 RMK A01 T01031180  RH  012%=      5-min Rain = 0
KPD3 142219Z 35013KT 10/M18 A3008 RMK A01 T01001181  RH  012%=      5-min Rain = 0
KPD3 142220Z 35013KT 10/M18 A3008 RMK A01 T01001178  RH  012%=      5-min Rain = 0
KPD3 142221Z 00012KT 10/M18 A3008 RMK A01 T00981179  RH  012%=      5-min Rain = 0
KPD3 142222Z 35009KT 10/M18 A3008 RMK A01 T00981181  RH  012%=      5-min Rain = 0
KPD3 142223Z 34011KT 10/M18 A3008 RMK A01 T00991178  RH  012%=      5-min Rain = 0
KPD3 142224Z 35011KT 10/M18 A3008 RMK A01 T00991178  RH  012%=      5-min Rain = 0
KPD3 142225Z 35009KT 10/M18 A3008 RMK A01 T01001176  RH  013%=      5-min Rain = 0
KPD3 142226Z 35009KT 10/M18 A3008 RMK A01 T01001177  RH  013%=      5-min Rain = 0
KPD3 142227Z 35008KT 10/M17 A3008 RMK A01 T01001174  RH  013%=      5-min Rain = 0
KPD3 142228Z 00010KT 10/M17 A3008 RMK A01 T01001172  RH  013%=      5-min Rain = 0
KPD3 142229Z 00011KT 10/M17 A3008 RMK A01 T00991171  RH  013%=      5-min Rain = 0
KPD3 142230Z 00010KT 10/M17 A3008 RMK A01 T00971171  RH  013%=      5-min Rain = 0
KPD3 142231Z 00009KT 10/M17 A3008 RMK A01 T00961174  RH  013%=      5-min Rain = 0
KPD3 142232Z 36009KT 10/M17 A3008 RMK A01 T00961173  RH  013%=      5-min Rain = 0
KPD3 142233Z 35014G20KT 10/M17 A3008 RMK A01 T00951171  RH  014%=      5-min Rain = 0
KPD3 142234Z 35017KT 10/M17 A3008 RMK A01 T00951173  RH  013%=      5-min Rain = 0
KPD3 142235Z 35013KT 10/M17 A3008 RMK A01 T00951173  RH  013%=      5-min Rain = 0
KPD3 142236Z 35016KT 10/M17 A3008 RMK A01 T00951174  RH  013%=      5-min Rain = 0
KPD3 142237Z 00014KT 10/M17 A3008 RMK A01 T00951173  RH  013%=      5-min Rain = 0
KPD3 142238Z 01013KT 10/M17 A3008 RMK A01 T00951172  RH  014%=      5-min Rain = 0
KPD3 142239Z 36011KT 10/M17 A3009 RMK A01 T00951170  RH  014%=      5-min Rain = 0
KPD3 142240Z 36009KT 10/M17 A3009 RMK A01 T00951168  RH  014%=      5-min Rain = 0
KPD3 142241Z 00010KT 10/M17 A3009 RMK A01 T00961168  RH  014%=      5-min Rain = 0
KPD3 142242Z 01012KT 10/M17 A3009 RMK A01 T00971169  RH  014%=      5-min Rain = 0
KPD3 142243Z 01012KT 10/M17 A3009 RMK A01 T00971172  RH  013%=      5-min Rain = 0
KPD3 142244Z 01015KT 10/M17 A3009 RMK A01 T00971172  RH  013%=      5-min Rain = 0
KPD3 142245Z 00015KT 10/M17 A3009 RMK A01 T00961172  RH  013%=      5-min Rain = 0
KPD3 142246Z 36014KT 10/M17 A3009 RMK A01 T00961172  RH  013%=      5-min Rain = 0
KPD3 142247Z 01013KT 10/M17 A3009 RMK A01 T00951173  RH  013%=      5-min Rain = 0
KPD3 142248Z 01011KT 10/M17 A3009 RMK A01 T00951171  RH  014%=      5-min Rain = 0
KPD3 142249Z 01012KT 10/M17 A3009 RMK A01 T00951169  RH  014%=      5-min Rain = 0
KPD3 142250Z 00011KT 10/M17 A3009 RMK A01 T00951172  RH  014%=      5-min Rain = 0
KPD3 142251Z 00010KT 09/M17 A3009 RMK A01 T00941172  RH  014%=      5-min Rain = 0
KPD3 142252Z 00010KT 09/M17 A3009 RMK A01 T00931171  RH  014%=      5-min Rain = 0
KPD3 142253Z 36010KT 09/M17 A3009 RMK A01 T00921171  RH  014%=      5-min Rain = 0
KPD3 142254Z 36009KT 09/M17 A3009 RMK A01 T00921170  RH  014%=      5-min Rain = 0
KPD3 142255Z 00010KT 09/M17 A301 RMK A01 T00921169  RH  014%=      5-min Rain = 0
KPD3 142256Z 36011KT 09/M17 A3009 RMK A01 T00921168  RH  014%=      5-min Rain = 0
KPD3 142257Z 36010KT 09/M17 A3009 RMK A01 T00921168  RH  014%=      5-min Rain = 0
KPD3 142258Z 35009KT 09/M17 A3009 RMK A01 T00921166  RH  014%=      5-min Rain = 0
KPD3 142259Z 35009KT 09/M17 A3009 RMK A01 T00921165  RH  015%=      5-min Rain = 0
KPD3 142300Z 35009KT 09/M17 A3009 RMK A01 T00921167  RH  014%=      5-min Rain = 0
KPD3 142301Z 35007KT 09/M17 A3009 RMK A01 T00921166  RH  014%=      5-min Rain = 0
KPD3 142302Z 35008KT 09/M16 A301 RMK A01 T00911163  RH  015%=      5-min Rain = 0
KPD3 142303Z 35007KT 09/M16 A3009 RMK A01 T00911163  RH  015%=      5-min Rain = 0
KPD3 142304Z 35007KT 09/M16 A3009 RMK A01 T00901162  RH  015%=      5-min Rain = 0
KPD3 142305Z 35007KT 09/M16 A3009 RMK A01 T00901161  RH  015%=      5-min Rain = 0
KPD3 142306Z 35009KT 09/M16 A3009 RMK A01 T00901163  RH  015%=      5-min Rain = 0
KPD3 142307Z 35010KT 09/M16 A3009 RMK A01 T00901164  RH  015%=      5-min Rain = 0
KPD3 142308Z 35010KT 09/M17 A3009 RMK A01 T00901166  RH  015%=      5-min Rain = 0
KPD3 142309Z 34010KT 09/M17 A301 RMK A01 T00901167  RH  015%=      5-min Rain = 0
KPD3 142310Z 34009KT 09/M17 A301 RMK A01 T00901166  RH  015%=      5-min Rain = 0
KPD3 142311Z 34007KT 09/M17 A301 RMK A01 T00891166  RH  015%=      5-min Rain = 0
KPD3 142312Z 34009KT 09/M17 A301 RMK A01 T00881165  RH  015%=      5-min Rain = 0
KPD3 142313Z 35008KT 09/M17 A301 RMK A01 T00881165  RH  015%=      5-min Rain = 0
KPD3 142314Z 35007KT 09/M17 A3009 RMK A01 T00871165  RH  015%=      5-min Rain = 0
KPD3 142315Z 35007KT 09/M17 A3009 RMK A01 T00871165  RH  015%=      5-min Rain = 0
KPD3 142316Z 35010KT 09/M17 A3009 RMK A01 T00861165  RH  015%=      5-min Rain = 0
KPD3 142317Z 35010KT 09/M17 A3009 RMK A01 T00861168  RH  015%=      5-min Rain = 0
KPD3 142318Z 34010KT 09/M17 A3009 RMK A01 T00861169  RH  015%=      5-min Rain = 0
KPD3 142319Z 34008KT 09/M17 A3009 RMK A01 T00861169  RH  015%=      5-min Rain = 0
KPD3 142320Z 34009KT 09/M17 A301 RMK A01 T00851167  RH  015%=      5-min Rain = 0
KPD3 142321Z 34009KT 08/M17 A301 RMK A01 T00841168  RH  015%=      5-min Rain = 0
KPD3 142322Z 34010KT 08/M17 A301 RMK A01 T00841170  RH  015%=      5-min Rain = 0
KPD3 142323Z 34009KT 08/M17 A301 RMK A01 T00841171  RH  015%=      5-min Rain = 0
KPD3 142324Z 34008KT 08/M17 A301 RMK A01 T00841169  RH  015%=      5-min Rain = 0
KPD3 142325Z 34009KT 08/M17 A301 RMK A01 T00831167  RH  015%=      5-min Rain = 0
KPD3 142326Z 34010KT 08/M17 A301 RMK A01 T00821168  RH  015%=      5-min Rain = 0
KPD3 142327Z 34009KT 08/M17 A301 RMK A01 T00821169  RH  015%=      5-min Rain = 0
KPD3 142328Z 34008KT 08/M17 A301 RMK A01 T00821167  RH  015%=      5-min Rain = 0
KPD3 142329Z 34007KT 08/M17 A301 RMK A01 T00801165  RH  016%=      5-min Rain = 0
KPD3 142330Z 34007KT 08/M17 A301 RMK A01 T00781165  RH  016%=      5-min Rain = 0
KPD3 142331Z 34008KT 08/M17 A301 RMK A01 T00761165  RH  016%=      5-min Rain = 0
KPD3 142332Z 34008KT 08/M16 A301 RMK A01 T00751164  RH  016%=      5-min Rain = 0
KPD3 142333Z 34008KT 07/M16 A301 RMK A01 T00741164  RH  017%=      5-min Rain = 0
KPD3 142334Z 34007KT 07/M16 A301 RMK A01 T00741164  RH  017%=      5-min Rain = 0
KPD3 142335Z 34007KT 07/M16 A301 RMK A01 T00731163  RH  017%=      5-min Rain = 0
KPD3 142336Z 34007KT 07/M16 A301 RMK A01 T00711163  RH  017%=      5-min Rain = 0
KPD3 142337Z 34007KT 07/M16 A301 RMK A01 T00691163  RH  017%=      5-min Rain = 0
KPD3 142338Z 34007KT 07/M16 A301 RMK A01 T00681163  RH  017%=      5-min Rain = 0
KPD3 142339Z 34007KT 07/M16 A301 RMK A01 T00671162  RH  018%=      5-min Rain = 0
KPD3 142340Z 34007KT 07/M16 A301 RMK A01 T00661162  RH  018%=      5-min Rain = 0
KPD3 142341Z 34006KT 07/M16 A301 RMK A01 T00651162  RH  018%=      5-min Rain = 0
KPD3 142342Z 34006KT 06/M16 A301 RMK A01 T00641162  RH  018%=      5-min Rain = 0
KPD3 142343Z 34006KT 06/M16 A301 RMK A01 T00621162  RH  018%=      5-min Rain = 0
KPD3 142344Z 34006KT 06/M16 A301 RMK A01 T00601163  RH  018%=      5-min Rain = 0
KPD3 142345Z 34006KT 06/M16 A301 RMK A01 T00591163  RH  018%=      5-min Rain = 0
KPD3 142346Z 33006KT 06/M16 A301 RMK A01 T00581163  RH  019%=      5-min Rain = 0
KPD3 142347Z 34006KT 06/M16 A301 RMK A01 T00551163  RH  019%=      5-min Rain = 0
KPD3 142348Z 34006KT 05/M16 A301 RMK A01 T00531162  RH  019%=      5-min Rain = 0
KPD3 142349Z 33006KT 05/M16 A301 RMK A01 T00521162  RH  020%=      5-min Rain = 0
KPD3 142350Z 33007KT 05/M16 A301 RMK A01 T00481161  RH  020%=      5-min Rain = 0
KPD3 142351Z 34007KT 04/M16 A301 RMK A01 T00441161  RH  021%=      5-min Rain = 0
KPD3 142352Z 34007KT 04/M16 A301 RMK A01 T00421160  RH  021%=      5-min Rain = 0
KPD3 142353Z 34007KT 04/M16 A301 RMK A01 T00401160  RH  022%=      5-min Rain = 0
KPD3 142354Z 33006KT 04/M16 A3011 RMK A01 T00391160  RH  022%=      5-min Rain = 0
KPD3 142355Z 34007KT 04/M16 A3011 RMK A01 T00381160  RH  022%=      5-min Rain = 0
KPD3 142356Z 33006KT 04/M16 A3011 RMK A01 T00351158  RH  023%=      5-min Rain = 0
KPD3 142357Z 34006KT 03/M16 A301 RMK A01 T00321157  RH  023%=      5-min Rain = 0
KPD3 142358Z 33007KT 03/M16 A301 RMK A01 T00301157  RH  024%=      5-min Rain = 0
KPD3 142359Z 33006KT 03/M16 A301 RMK A01 T00291156  RH  024%=      5-min Rain = 0
KPD3 150000Z 33006KT 03/M16 A301 RMK A01 T00281156  RH  025%=      5-min Rain = 0
KPD3 150001Z 33006KT 03/M16 A301 RMK A01 T00261155  RH  025%=      5-min Rain = 0
KPD3 150002Z 33006KT 03/M16 A3011 RMK A01 T00251155  RH  025%=      5-min Rain = 0
KPD3 150003Z 32006KT 02/M15 A3011 RMK A01 T00231154  RH  026%=      5-min Rain = 0
KPD3 150004Z 32006KT 02/M15 A3011 RMK A01 T00211154  RH  026%=      5-min Rain = 0
KPD3 150005Z 32007KT 02/M15 A3011 RMK A01 T00191154  RH  026%=      5-min Rain = 0
KPD3 150006Z 32007KT 02/M15 A3011 RMK A01 T00161154  RH  027%=      5-min Rain = 0
KPD3 150007Z 32007KT 01/M15 A3011 RMK A01 T00141153  RH  028%=      5-min Rain = 0
KPD3 150008Z 32007KT 01/M15 A3011 RMK A01 T00111151  RH  029%=      5-min Rain = 0
KPD3 150009Z 32007KT 01/M15 A3011 RMK A01 T00111149  RH  029%=      5-min Rain = 0
KPD3 150010Z 32007KT 01/M15 A3011 RMK A01 T00101148  RH  030%=      5-min Rain = 0
KPD3 150011Z 32007KT 01/M15 A3011 RMK A01 T00091147  RH  030%=      5-min Rain = 0
KPD3 150012Z 32007KT 01/M15 A3011 RMK A01 T00101146  RH  030%=      5-min Rain = 0
KPD3 150013Z 32007KT 01/M15 A3011 RMK A01 T00091146  RH  030%=      5-min Rain = 0
KPD3 150014Z 31008KT 01/M15 A3011 RMK A01 T00091146  RH  030%=      5-min Rain = 0
KPD3 150015Z 31008KT 01/M15 A3011 RMK A01 T00081147  RH  030%=      5-min Rain = 0
KPD3 150016Z 31008KT 01/M15 A3011 RMK A01 T00071147  RH  031%=      5-min Rain = 0
KPD3 150017Z 31007KT 01/M15 A3011 RMK A01 T00061146  RH  031%=      5-min Rain = 0
KPD3 150018Z 31008KT 00/M15 A3011 RMK A01 T00041146  RH  031%=      5-min Rain = 0
KPD3 150019Z 31008KT 00/M15 A3011 RMK A01 T00031145  RH  032%=      5-min Rain = 0
KPD3 150020Z 31008KT 00/M15 A3012 RMK A01 T00021145  RH  032%=      5-min Rain = 0
KPD3 150021Z 31009KT 00/14 A3012 RMK A01 T00-00-144  RH  033%=      5-min Rain = 0
KPD3 150022Z 31009KT M00/M14 A3012 RMK A01 T10011143  RH  033%=      5-min Rain = 0
KPD3 150023Z 31009KT M00/M14 A3012 RMK A01 T10021143  RH  034%=      5-min Rain = 0
KPD3 150024Z 31009KT M00/M14 A3012 RMK A01 T10031143  RH  034%=      5-min Rain = 0
KPD3 150025Z 31009KT M00/M14 A3012 RMK A01 T10031142  RH  034%=      5-min Rain = 0
KPD3 150026Z 31009KT M00/M14 A3012 RMK A01 T10031141  RH  034%=      5-min Rain = 0
KPD3 150027Z 31009KT M00/M14 A3012 RMK A01 T10041141  RH  035%=      5-min Rain = 0
KPD3 150028Z 31009KT M00/M14 A3012 RMK A01 T10041141  RH  035%=      5-min Rain = 0
KPD3 150029Z 31009KT M01/M14 A3012 RMK A01 T10051141  RH  035%=      5-min Rain = 0
KPD3 150030Z 30009KT M01/M14 A3012 RMK A01 T10061141  RH  035%=      5-min Rain = 0
KPD3 150031Z 31009KT M01/M14 A3012 RMK A01 T10071140  RH  036%=      5-min Rain = 0
KPD3 150032Z 31009KT M01/M14 A3012 RMK A01 T10091140  RH  036%=      5-min Rain = 0
KPD3 150033Z 31009KT M01/M14 A3012 RMK A01 T10101140  RH  037%=      5-min Rain = 0
KPD3 150034Z 31009KT M01/M14 A3012 RMK A01 T10111139  RH  037%=      5-min Rain = 0
KPD3 150035Z 31008KT M01/M14 A3012 RMK A01 T10121139  RH  038%=      5-min Rain = 0
KPD3 150036Z 31008KT M01/M14 A3012 RMK A01 T10141138  RH  038%=      5-min Rain = 0
KPD3 150037Z 30009KT M02/M14 A3012 RMK A01 T10151138  RH  039%=      5-min Rain = 0
KPD3 150038Z 30009KT M02/M14 A3012 RMK A01 T10151137  RH  039%=      5-min Rain = 0
KPD3 150039Z 30009KT M02/M14 A3012 RMK A01 T10161137  RH  039%=      5-min Rain = 0
KPD3 150040Z 30008KT M02/M14 A3012 RMK A01 T10161136  RH  039%=      5-min Rain = 0
KPD3 150041Z 30008KT M02/M14 A3012 RMK A01 T10151136  RH  039%=      5-min Rain = 0
KPD3 150042Z 30008KT M02/M14 A3012 RMK A01 T10151135  RH  040%=      5-min Rain = 0
KPD3 150043Z 30008KT M02/M14 A3012 RMK A01 T10151135  RH  040%=      5-min Rain = 0
KPD3 150044Z 30008KT M01/M13 A3012 RMK A01 T10141134  RH  040%=      5-min Rain = 0
KPD3 150045Z 30008KT M01/M13 A3012 RMK A01 T10131134  RH  039%=      5-min Rain = 0
KPD3 150046Z 30008KT M01/M13 A3012 RMK A01 T10131134  RH  039%=      5-min Rain = 0
KPD3 150047Z 30008KT M01/M13 A3012 RMK A01 T10131133  RH  040%=      5-min Rain = 0
KPD3 150048Z 30008KT M01/M13 A3012 RMK A01 T10141133  RH  040%=      5-min Rain = 0
KPD3 150049Z 31008KT M01/M13 A3012 RMK A01 T10141133  RH  040%=      5-min Rain = 0
KPD3 150050Z 31009KT M01/M13 A3012 RMK A01 T10141133  RH  040%=      5-min Rain = 0
KPD3 150051Z 31009KT M01/M13 A3012 RMK A01 T10141133  RH  040%=      5-min Rain = 0
KPD3 150052Z 31009KT M01/M13 A3012 RMK A01 T10131133  RH  040%=      5-min Rain = 0
KPD3 150053Z 31009KT M01/M13 A3013 RMK A01 T10131133  RH  040%=      5-min Rain = 0
KPD3 150054Z 30009KT M01/M13 A3013 RMK A01 T10131132  RH  040%=      5-min Rain = 0
KPD3 150055Z 30009KT M01/M13 A3013 RMK A01 T10131132  RH  040%=      5-min Rain = 0
KPD3 150056Z 30009KT M01/M13 A3013 RMK A01 T10121131  RH  040%=      5-min Rain = 0
KPD3 150057Z 30009KT M01/M13 A3013 RMK A01 T10121131  RH  040%=      5-min Rain = 0
KPD3 150058Z 30009KT M01/M13 A3013 RMK A01 T10121130  RH  040%=      5-min Rain = 0
KPD3 150059Z 30009KT M01/M13 A3013 RMK A01 T10121130  RH  040%=      5-min Rain = 0
KPD3 150100Z 30008KT M01/M13 A3013 RMK A01 T10121130  RH  040%=      5-min Rain = 0
KPD3 150101Z 30008KT M01/M13 A3013 RMK A01 T10121130  RH  040%=      5-min Rain = 0
KPD3 150102Z 30008KT M01/M13 A3013 RMK A01 T10121130  RH  040%=      5-min Rain = 0
KPD3 150103Z 30008KT M01/M13 A3013 RMK A01 T10121130  RH  040%=      5-min Rain = 0
KPD3 150104Z 30008KT M01/M13 A3013 RMK A01 T10121130  RH  040%=      5-min Rain = 0
KPD3 150105Z 30008KT M01/M13 A3013 RMK A01 T10131130  RH  040%=      5-min Rain = 0
KPD3 150106Z 30009KT M01/M13 A3013 RMK A01 T10131130  RH  041%=      5-min Rain = 0
KPD3 150107Z 30009KT M01/M13 A3013 RMK A01 T10131130  RH  041%=      5-min Rain = 0
KPD3 150108Z 30009KT M01/M13 A3013 RMK A01 T10131130  RH  041%=      5-min Rain = 0
KPD3 150109Z 30009KT M01/M13 A3013 RMK A01 T10131129  RH  041%=      5-min Rain = 0
KPD3 150110Z 30008KT M01/M13 A3013 RMK A01 T10131129  RH  041%=      5-min Rain = 0
KPD3 150111Z 30008KT M01/M13 A3013 RMK A01 T10131128  RH  041%=      5-min Rain = 0
KPD3 150112Z 30008KT M01/M13 A3013 RMK A01 T10121128  RH  041%=      5-min Rain = 0
KPD3 150113Z 30008KT M01/M13 A3013 RMK A01 T10121127  RH  041%=      5-min Rain = 0
KPD3 150114Z 30007KT M01/M13 A3013 RMK A01 T10121127  RH  041%=      5-min Rain = 0
KPD3 150115Z 30007KT M01/M13 A3013 RMK A01 T10111126  RH  041%=      5-min Rain = 0
KPD3 150116Z 30007KT M01/M13 A3013 RMK A01 T10111126  RH  041%=      5-min Rain = 0
KPD3 150117Z 30007KT M01/M13 A3013 RMK A01 T10111126  RH  041%=      5-min Rain = 0
KPD3 150118Z 30008KT M01/M13 A3013 RMK A01 T10121126  RH  041%=      5-min Rain = 0
KPD3 150119Z 30008KT M01/M13 A3013 RMK A01 T10121126  RH  042%=      5-min Rain = 0
KPD3 150120Z 30008KT M01/M13 A3013 RMK A01 T10121125  RH  042%=      5-min Rain = 0
KPD3 150121Z 30007KT M01/M13 A3013 RMK A01 T10121126  RH  042%=      5-min Rain = 0
KPD3 150122Z 30008KT M01/M13 A3013 RMK A01 T10121125  RH  042%=      5-min Rain = 0
KPD3 150123Z 30008KT M01/M13 A3013 RMK A01 T10131126  RH  042%=      5-min Rain = 0
KPD3 150124Z 30008KT M01/M13 A3013 RMK A01 T10131126  RH  042%=      5-min Rain = 0
KPD3 150125Z 30008KT M01/M13 A3013 RMK A01 T10141126  RH  042%=      5-min Rain = 0
KPD3 150126Z 30008KT M01/M13 A3013 RMK A01 T10131126  RH  042%=      5-min Rain = 0
KPD3 150127Z 30008KT M01/M13 A3013 RMK A01 T10141127  RH  042%=      5-min Rain = 0
KPD3 150128Z 30008KT M01/M13 A3013 RMK A01 T10141127  RH  042%=      5-min Rain = 0
KPD3 150129Z 30008KT M01/M13 A3013 RMK A01 T10131127  RH  042%=      5-min Rain = 0
KPD3 150130Z 30009KT M01/M13 A3014 RMK A01 T10131126  RH  042%=      5-min Rain = 0
KPD3 150131Z 30009KT M01/M13 A3014 RMK A01 T10131126  RH  042%=      5-min Rain = 0
KPD3 150132Z 30009KT M01/M13 A3014 RMK A01 T10131125  RH  042%=      5-min Rain = 0
KPD3 150133Z 30009KT M01/M12 A3014 RMK A01 T10121124  RH  042%=      5-min Rain = 0
KPD3 150134Z 30010KT M01/M12 A3014 RMK A01 T10101123  RH  042%=      5-min Rain = 0
KPD3 150135Z 30009KT M01/M12 A3014 RMK A01 T10071122  RH  041%=      5-min Rain = 0
KPD3 150136Z 31009KT M00/M12 A3014 RMK A01 T10041122  RH  041%=      5-min Rain = 0
KPD3 150137Z 31009KT M00/M12 A3014 RMK A01 T10021122  RH  040%=      5-min Rain = 0
KPD3 150138Z 31009KT 00/12 A3014 RMK A01 T00-00-123  RH  039%=      5-min Rain = 0
KPD3 150139Z 31009KT 00/M12 A3014 RMK A01 T00011123  RH  039%=      5-min Rain = 0
KPD3 150140Z 31009KT 00/M12 A3014 RMK A01 T00031124  RH  038%=      5-min Rain = 0
KPD3 150141Z 31009KT 00/M13 A3014 RMK A01 T00041125  RH  037%=      5-min Rain = 0
KPD3 150142Z 31009KT 00/M13 A3014 RMK A01 T00041125  RH  037%=      5-min Rain = 0
KPD3 150143Z 31009KT 00/M13 A3014 RMK A01 T00041125  RH  037%=      5-min Rain = 0
KPD3 150144Z 30009KT 00/M13 A3014 RMK A01 T00041126  RH  037%=      5-min Rain = 0
KPD3 150145Z 30009KT 00/M13 A3014 RMK A01 T00041126  RH  037%=      5-min Rain = 0
KPD3 150146Z 30009KT 00/M13 A3014 RMK A01 T00041127  RH  037%=      5-min Rain = 0
KPD3 150147Z 30009KT 01/M13 A3014 RMK A01 T00051127  RH  036%=      5-min Rain = 0
KPD3 150148Z 30009KT 01/M13 A3014 RMK A01 T00061127  RH  036%=      5-min Rain = 0
KPD3 150149Z 30009KT 01/M13 A3014 RMK A01 T00071128  RH  036%=      5-min Rain = 0
KPD3 150150Z 30009KT 01/M13 A3014 RMK A01 T00071128  RH  036%=      5-min Rain = 0
KPD3 150151Z 30009KT 01/M13 A3014 RMK A01 T00071128  RH  035%=      5-min Rain = 0
KPD3 150152Z 30009KT 01/M13 A3014 RMK A01 T00071128  RH  036%=      5-min Rain = 0
KPD3 150153Z 30009KT 01/M13 A3014 RMK A01 T00081127  RH  036%=      5-min Rain = 0
KPD3 150154Z 30009KT 01/M13 A3014 RMK A01 T00081127  RH  036%=      5-min Rain = 0
KPD3 150155Z 30008KT 01/M13 A3014 RMK A01 T00081128  RH  036%=      5-min Rain = 0
KPD3 150156Z 30009KT 01/M13 A3014 RMK A01 T00081128  RH  035%=      5-min Rain = 0
KPD3 150157Z 30009KT 01/M13 A3014 RMK A01 T00091128  RH  035%=      5-min Rain = 0
KPD3 150158Z 30009KT 01/M13 A3014 RMK A01 T00101127  RH  035%=      5-min Rain = 0
KPD3 150159Z 30008KT 01/M13 A3014 RMK A01 T00111127  RH  035%=      5-min Rain = 0
KPD3 150200Z 30008KT 01/M13 A3014 RMK A01 T00131126  RH  035%=      5-min Rain = 0
KPD3 150201Z 30008KT 01/M13 A3014 RMK A01 T00141126  RH  034%=      5-min Rain = 0
KPD3 150202Z 30007KT 02/M13 A3015 RMK A01 T00151125  RH  034%=      5-min Rain = 0
KPD3 150203Z 30007KT 02/M13 A3015 RMK A01 T00151125  RH  034%=      5-min Rain = 0
KPD3 150204Z 30007KT 02/M12 A3015 RMK A01 T00161124  RH  034%=      5-min Rain = 0
KPD3 150205Z 30007KT 02/M12 A3015 RMK A01 T00161124  RH  034%=      5-min Rain = 0
KPD3 150206Z 30007KT 02/M12 A3015 RMK A01 T00171123  RH  034%=      5-min Rain = 0
KPD3 150207Z 30007KT 02/M12 A3015 RMK A01 T00171123  RH  035%=      5-min Rain = 0
KPD3 150208Z 30007KT 02/M12 A3015 RMK A01 T00171123  RH  035%=      5-min Rain = 0
KPD3 150209Z 30007KT 02/M12 A3015 RMK A01 T00181123  RH  034%=      5-min Rain = 0
KPD3 150210Z 31007KT 02/M13 A3015 RMK A01 T00191125  RH  034%=      5-min Rain = 0
KPD3 150211Z 31007KT 02/M13 A3015 RMK A01 T00211125  RH  033%=      5-min Rain = 0
KPD3 150212Z 31007KT 02/M13 A3015 RMK A01 T00221126  RH  033%=      5-min Rain = 0
KPD3 150213Z 31007KT 02/M13 A3015 RMK A01 T00221126  RH  032%=      5-min Rain = 0
KPD3 150214Z 31007KT 02/M13 A3015 RMK A01 T00231126  RH  032%=      5-min Rain = 0
KPD3 150215Z 31008KT 02/M13 A3015 RMK A01 T00231126  RH  032%=      5-min Rain = 0
KPD3 150216Z 31008KT 02/M13 A3015 RMK A01 T00231125  RH  032%=      5-min Rain = 0
KPD3 150217Z 31008KT 02/M13 A3015 RMK A01 T00231125  RH  033%=      5-min Rain = 0
KPD3 150218Z 31008KT 02/M13 A3015 RMK A01 T00231125  RH  033%=      5-min Rain = 0
KPD3 150219Z 31008KT 02/M12 A3015 RMK A01 T00231123  RH  033%=      5-min Rain = 0
KPD3 150220Z 31008KT 02/M12 A3015 RMK A01 T00231123  RH  033%=      5-min Rain = 0
KPD3 150221Z 31008KT 02/M12 A3015 RMK A01 T00231122  RH  033%=      5-min Rain = 0
KPD3 150222Z 31008KT 02/M12 A3015 RMK A01 T00231122  RH  033%=      5-min Rain = 0
KPD3 150223Z 31008KT 02/M12 A3015 RMK A01 T00231123  RH  033%=      5-min Rain = 0
KPD3 150224Z 31008KT 02/M12 A3015 RMK A01 T00231122  RH  033%=      5-min Rain = 0
KPD3 150225Z 31008KT 02/M12 A3015 RMK A01 T00231123  RH  033%=      5-min Rain = 0
KPD3 150226Z 31008KT 02/M12 A3015 RMK A01 T00231123  RH  033%=      5-min Rain = 0
KPD3 150227Z 31008KT 02/M12 A3015 RMK A01 T00241123  RH  033%=      5-min Rain = 0
KPD3 150228Z 30008KT 03/M12 A3015 RMK A01 T00251123  RH  033%=      5-min Rain = 0
KPD3 150229Z 30008KT 03/M12 A3015 RMK A01 T00261124  RH  032%=      5-min Rain = 0
KPD3 150230Z 31008KT 03/M13 A3015 RMK A01 T00261125  RH  032%=      5-min Rain = 0
KPD3 150231Z 31008KT 03/M13 A3015 RMK A01 T00271125  RH  032%=      5-min Rain = 0
KPD3 150232Z 30008KT 03/M13 A3015 RMK A01 T00281126  RH  031%=      5-min Rain = 0
KPD3 150233Z 30008KT 03/M13 A3015 RMK A01 T00291127  RH  031%=      5-min Rain = 0
KPD3 150234Z 30008KT 03/M13 A3015 RMK A01 T00301128  RH  030%=      5-min Rain = 0
KPD3 150235Z 30008KT 03/M13 A3015 RMK A01 T00311129  RH  030%=      5-min Rain = 0
KPD3 150236Z 30007KT 03/M13 A3015 RMK A01 T00331129  RH  029%=      5-min Rain = 0
KPD3 150237Z 30007KT 03/M13 A3015 RMK A01 T00331130  RH  029%=      5-min Rain = 0
KPD3 150238Z 30007KT 03/M13 A3015 RMK A01 T00341129  RH  029%=      5-min Rain = 0
KPD3 150239Z 31007KT 03/M13 A3015 RMK A01 T00331129  RH  029%=      5-min Rain = 0
KPD3 150240Z 30007KT 03/M13 A3015 RMK A01 T00331130  RH  029%=      5-min Rain = 0
KPD3 150241Z 31008KT 03/M13 A3015 RMK A01 T00331130  RH  029%=      5-min Rain = 0
KPD3 150242Z 31008KT 03/M13 A3015 RMK A01 T00331130  RH  029%=      5-min Rain = 0
KPD3 150243Z 30008KT 03/M13 A3015 RMK A01 T00331130  RH  029%=      5-min Rain = 0
KPD3 150244Z 30008KT 03/M13 A3015 RMK A01 T00331129  RH  029%=      5-min Rain = 0
KPD3 150245Z 30008KT 03/M13 A3015 RMK A01 T00331130  RH  029%=      5-min Rain = 0
KPD3 150246Z 30008KT 03/M13 A3015 RMK A01 T00331130  RH  029%=      5-min Rain = 0
KPD3 150247Z 30008KT 03/M13 A3015 RMK A01 T00331130  RH  029%=      5-min Rain = 0
KPD3 150248Z 31008KT 03/M13 A3015 RMK A01 T00331130  RH  029%=      5-min Rain = 0
KPD3 150249Z 31008KT 03/M13 A3016 RMK A01 T00331130  RH  029%=      5-min Rain = 0
KPD3 150250Z 30008KT 03/M13 A3016 RMK A01 T00331129  RH  029%=      5-min Rain = 0
KPD3 150251Z 30008KT 03/M13 A3016 RMK A01 T00331128  RH  029%=      5-min Rain = 0
KPD3 150252Z 30007KT 03/M13 A3016 RMK A01 T00331129  RH  029%=      5-min Rain = 0
KPD3 150253Z 31007KT 03/M13 A3016 RMK A01 T00331129  RH  029%=      5-min Rain = 0
KPD3 150254Z 30007KT 03/M13 A3016 RMK A01 T00341128  RH  029%=      5-min Rain = 0
KPD3 150255Z 31007KT 03/M13 A3016 RMK A01 T00341128  RH  029%=      5-min Rain = 0
KPD3 150256Z 30007KT 03/M13 A3016 RMK A01 T00341129  RH  029%=      5-min Rain = 0
KPD3 150257Z 30007KT 03/M13 A3016 RMK A01 T00341129  RH  029%=      5-min Rain = 0
KPD3 150258Z 31006KT 03/M13 A3015 RMK A01 T00341128  RH  029%=      5-min Rain = 0
KPD3 150259Z 31006KT 03/M13 A3015 RMK A01 T00341128  RH  029%=      5-min Rain = 0
KPD3 150300Z 31006KT 03/M13 A3015 RMK A01 T00331128  RH  030%=      5-min Rain = 0
KPD3 150301Z 31006KT 03/M13 A3015 RMK A01 T00331128  RH  030%=      5-min Rain = 0
KPD3 150302Z 31006KT 03/M13 A3015 RMK A01 T00331127  RH  030%=      5-min Rain = 0
KPD3 150303Z 31006KT 03/M13 A3015 RMK A01 T00321126  RH  030%=      5-min Rain = 0
KPD3 150304Z 31006KT 03/M13 A3015 RMK A01 T00321126  RH  031%=      5-min Rain = 0
KPD3 150305Z 30007KT 03/M13 A3016 RMK A01 T00321125  RH  031%=      5-min Rain = 0
KPD3 150306Z 30006KT 03/M13 A3016 RMK A01 T00321125  RH  031%=      5-min Rain = 0
KPD3 150307Z 30007KT 03/M12 A3016 RMK A01 T00321124  RH  031%=      5-min Rain = 0
KPD3 150308Z 30007KT 03/M13 A3016 RMK A01 T00311125  RH  031%=      5-min Rain = 0
KPD3 150309Z 30007KT 03/M13 A3016 RMK A01 T00321125  RH  031%=      5-min Rain = 0
KPD3 150310Z 30007KT 03/M13 A3016 RMK A01 T00321125  RH  031%=      5-min Rain = 0
KPD3 150311Z 30007KT 03/M13 A3016 RMK A01 T00321126  RH  030%=      5-min Rain = 0
KPD3 150312Z 30007KT 03/M13 A3016 RMK A01 T00331126  RH  030%=      5-min Rain = 0
KPD3 150313Z 30007KT 03/M13 A3016 RMK A01 T00331125  RH  030%=      5-min Rain = 0
KPD3 150314Z 30007KT 03/M13 A3016 RMK A01 T00331125  RH  030%=      5-min Rain = 0
KPD3 150315Z 30008KT 03/M13 A3016 RMK A01 T00341125  RH  030%=      5-min Rain = 0
KPD3 150316Z 30007KT 03/M13 A3016 RMK A01 T00341125  RH  030%=      5-min Rain = 0
KPD3 150317Z 30008KT 03/M13 A3016 RMK A01 T00341125  RH  030%=      5-min Rain = 0
KPD3 150318Z 30008KT 03/M12 A3016 RMK A01 T00341124  RH  030%=      5-min Rain = 0
KPD3 150319Z 30008KT 03/M13 A3016 RMK A01 T00341125  RH  030%=      5-min Rain = 0
KPD3 150320Z 30007KT 03/M13 A3016 RMK A01 T00341125  RH  030%=      5-min Rain = 0
KPD3 150321Z 30007KT 03/M13 A3016 RMK A01 T00341125  RH  030%=      5-min Rain = 0
KPD3 150322Z 30007KT 04/M13 A3016 RMK A01 T00351125  RH  030%=      5-min Rain = 0
KPD3 150323Z 30007KT 04/M13 A3016 RMK A01 T00351125  RH  030%=      5-min Rain = 0
KPD3 150324Z 30007KT 04/M13 A3016 RMK A01 T00351125  RH  030%=      5-min Rain = 0
KPD3 150325Z 30007KT 04/M13 A3016 RMK A01 T00361125  RH  030%=      5-min Rain = 0
KPD3 150326Z 30007KT 04/M13 A3016 RMK A01 T00361126  RH  030%=      5-min Rain = 0
KPD3 150327Z 30007KT 04/M13 A3016 RMK A01 T00371125  RH  029%=      5-min Rain = 0
KPD3 150328Z 30007KT 04/M13 A3016 RMK A01 T00371126  RH  029%=      5-min Rain = 0
KPD3 150329Z 30007KT 04/M13 A3016 RMK A01 T00371125  RH  029%=      5-min Rain = 0
KPD3 150330Z 30007KT 04/M13 A3016 RMK A01 T00371125  RH  029%=      5-min Rain = 0
KPD3 150331Z 30007KT 04/M13 A3016 RMK A01 T00371126  RH  029%=      5-min Rain = 0
KPD3 150332Z 31007KT 04/M13 A3016 RMK A01 T00371125  RH  029%=      5-min Rain = 0
KPD3 150333Z 31007KT 04/M12 A3016 RMK A01 T00371124  RH  030%=      5-min Rain = 0
KPD3 150334Z 31008KT 04/M12 A3016 RMK A01 T00361124  RH  030%=      5-min Rain = 0
KPD3 150335Z 31008KT 04/M12 A3016 RMK A01 T00361123  RH  030%=      5-min Rain = 0
KPD3 150336Z 31008KT 04/M12 A3016 RMK A01 T00361122  RH  030%=      5-min Rain = 0
KPD3 150337Z 31007KT 04/M12 A3016 RMK A01 T00351122  RH  031%=      5-min Rain = 0
KPD3 150338Z 31007KT 04/M12 A3016 RMK A01 T00351121  RH  031%=      5-min Rain = 0
KPD3 150339Z 30007KT 04/M12 A3016 RMK A01 T00351121  RH  031%=      5-min Rain = 0
KPD3 150340Z 31008KT 04/M12 A3016 RMK A01 T00351121  RH  031%=      5-min Rain = 0
KPD3 150341Z 31008KT 04/M12 A3016 RMK A01 T00351121  RH  031%=      5-min Rain = 0
KPD3 150342Z 31007KT 04/M12 A3016 RMK A01 T00351121  RH  031%=      5-min Rain = 0
KPD3 150343Z 31008KT 04/M12 A3016 RMK A01 T00351120  RH  031%=      5-min Rain = 0
KPD3 150344Z 31007KT 04/M12 A3016 RMK A01 T00351121  RH  031%=      5-min Rain = 0
KPD3 150345Z 31007KT 04/M12 A3016 RMK A01 T00361120  RH  031%=      5-min Rain = 0
KPD3 150346Z 31007KT 04/M12 A3016 RMK A01 T00351120  RH  031%=      5-min Rain = 0
KPD3 150347Z 31007KT 04/M12 A3016 RMK A01 T00361119  RH  031%=      5-min Rain = 0
KPD3 150348Z 31007KT 04/M12 A3016 RMK A01 T00351119  RH  031%=      5-min Rain = 0
KPD3 150349Z 31007KT 04/M12 A3017 RMK A01 T00351119  RH  032%=      5-min Rain = 0
KPD3 150350Z 32007KT 04/M12 A3017 RMK A01 T00351118  RH  032%=      5-min Rain = 0
KPD3 150351Z 32008KT 03/M12 A3017 RMK A01 T00341116  RH  032%=      5-min Rain = 0
KPD3 150352Z 32008KT 03/M12 A3017 RMK A01 T00341115  RH  033%=      5-min Rain = 0
KPD3 150353Z 32008KT 03/M11 A3017 RMK A01 T00331114  RH  033%=      5-min Rain = 0
KPD3 150354Z 34012G17KT 03/M12 A3017 RMK A01 T00341117  RH  032%=      5-min Rain = 0
KPD3 150355Z 33012G19KT 04/M13 A3017 RMK A01 T00391126  RH  029%=      5-min Rain = 0
KPD3 150356Z 34008KT 04/M13 A3017 RMK A01 T00431126  RH  028%=      5-min Rain = 0
KPD3 150357Z 34008KT 04/M13 A3017 RMK A01 T00431125  RH  028%=      5-min Rain = 0
KPD3 150358Z 34009KT 04/M12 A3018 RMK A01 T00421124  RH  029%=      5-min Rain = 0
KPD3 150359Z 33008KT 04/M12 A3018 RMK A01 T00411124  RH  029%=      5-min Rain = 0
KPD3 150400Z 33009KT 04/M13 A3018 RMK A01 T00421125  RH  029%=      5-min Rain = 0
KPD3 150401Z 33009KT 04/M13 A3018 RMK A01 T00421125  RH  029%=      5-min Rain = 0
KPD3 150402Z 32008KT 04/M12 A3018 RMK A01 T00411122  RH  029%=      5-min Rain = 0
KPD3 150403Z 33008KT 04/M12 A3018 RMK A01 T00401121  RH  030%=      5-min Rain = 0
KPD3 150404Z 33008KT 04/M12 A3018 RMK A01 T00401120  RH  030%=      5-min Rain = 0
KPD3 150405Z 33008KT 04/M12 A3018 RMK A01 T00401122  RH  030%=      5-min Rain = 0
KPD3 150406Z 33007KT 04/M12 A3018 RMK A01 T00401122  RH  030%=      5-min Rain = 0
KPD3 150407Z 34007KT 04/M12 A3018 RMK A01 T00401122  RH  030%=      5-min Rain = 0
KPD3 150408Z 33007KT 04/M12 A3018 RMK A01 T00401123  RH  029%=      5-min Rain = 0
KPD3 150409Z 33007KT 04/M13 A3018 RMK A01 T00401125  RH  029%=      5-min Rain = 0
KPD3 150410Z 34006KT 04/M13 A3018 RMK A01 T00401125  RH  029%=      5-min Rain = 0
KPD3 150411Z 35007KT 04/M12 A3018 RMK A01 T00411124  RH  029%=      5-min Rain = 0
KPD3 150412Z 35007KT 04/M12 A3018 RMK A01 T00401124  RH  029%=      5-min Rain = 0
KPD3 150413Z 35007KT 04/M12 A3018 RMK A01 T00401123  RH  029%=      5-min Rain = 0
KPD3 150414Z 34007G12KT 04/M12 A3018 RMK A01 T00391124  RH  029%=      5-min Rain = 0
KPD3 150415Z 00015G23KT 04/M13 A3019 RMK A01 T00391125  RH  029%=      5-min Rain = 0
KPD3 150416Z 35014KT 05/M13 A3019 RMK A01 T00471125  RH  027%=      5-min Rain = 0
KPD3 150417Z 34011KT 05/M13 A3019 RMK A01 T00521128  RH  026%=      5-min Rain = 0
KPD3 150418Z 34009KT 05/M13 A3019 RMK A01 T00511130  RH  026%=      5-min Rain = 0
KPD3 150419Z 35009KT 05/M13 A3019 RMK A01 T00491129  RH  026%=      5-min Rain = 0
KPD3 150420Z 34011KT 05/M13 A3019 RMK A01 T00481129  RH  026%=      5-min Rain = 0
KPD3 150421Z 35011KT 05/M13 A3019 RMK A01 T00481128  RH  027%=      5-min Rain = 0
KPD3 150422Z 36015KT 05/M13 A3019 RMK A01 T00481125  RH  027%=      5-min Rain = 0
KPD3 150423Z 35016KT 05/M12 A3019 RMK A01 T00491122  RH  028%=      5-min Rain = 0
KPD3 150424Z 35016KT 05/M12 A3019 RMK A01 T00521120  RH  028%=      5-min Rain = 0
KPD3 150425Z 00015KT 05/M12 A3019 RMK A01 T00541120  RH  027%=      5-min Rain = 0
KPD3 150426Z 00012KT 05/M12 A3019 RMK A01 T00541119  RH  027%=      5-min Rain = 0
KPD3 150427Z 36017KT 05/M12 A3019 RMK A01 T00541118  RH  028%=      5-min Rain = 0
KPD3 150428Z 36013KT 05/M12 A3019 RMK A01 T00531118  RH  028%=      5-min Rain = 0
KPD3 150429Z 36014KT 05/M12 A3019 RMK A01 T00531117  RH  028%=      5-min Rain = 0
KPD3 150430Z 36017KT 05/M12 A3019 RMK A01 T00531117  RH  028%=      5-min Rain = 0
KPD3 150431Z 36018KT 05/M12 A3019 RMK A01 T00531116  RH  029%=      5-min Rain = 0
KPD3 150432Z 00016KT 05/M12 A3019 RMK A01 T00531115  RH  029%=      5-min Rain = 0
KPD3 150433Z 36015KT 05/M11 A3019 RMK A01 T00531113  RH  029%=      5-min Rain = 0
KPD3 150434Z 00015KT 05/M11 A3019 RMK A01 T00521112  RH  029%=      5-min Rain = 0
KPD3 150435Z 01014KT 05/M11 A3019 RMK A01 T00521111  RH  030%=      5-min Rain = 0
KPD3 150436Z 00014KT 05/M11 A302 RMK A01 T00521110  RH  030%=      5-min Rain = 0
KPD3 150437Z 01014G20KT 05/M11 A3019 RMK A01 T00521110  RH  030%=      5-min Rain = 0
KPD3 150438Z 01013KT 05/M11 A3019 RMK A01 T00521109  RH  030%=      5-min Rain = 0
KPD3 150439Z 00015KT 05/M11 A3019 RMK A01 T00521109  RH  030%=      5-min Rain = 0
KPD3 150440Z 00016KT 05/M11 A3019 RMK A01 T00521109  RH  030%=      5-min Rain = 0
KPD3 150441Z 01015KT 05/M11 A3019 RMK A01 T00521109  RH  030%=      5-min Rain = 0
KPD3 150442Z 01014KT 05/M11 A3019 RMK A01 T00521109  RH  030%=      5-min Rain = 0
KPD3 150443Z 00012KT 05/M11 A302 RMK A01 T00521109  RH  030%=      5-min Rain = 0
KPD3 150444Z 00017KT 05/M11 A302 RMK A01 T00531108  RH  030%=      5-min Rain = 0
KPD3 150445Z 00014G19KT 05/M11 A3019 RMK A01 T00521109  RH  030%=      5-min Rain = 0
KPD3 150446Z 00015KT 05/M11 A302 RMK A01 T00531108  RH  030%=      5-min Rain = 0
KPD3 150447Z 00016KT 05/M11 A302 RMK A01 T00521108  RH  030%=      5-min Rain = 0
KPD3 150448Z 01015KT 05/M11 A302 RMK A01 T00521109  RH  030%=      5-min Rain = 0
KPD3 150449Z 00014KT 05/M11 A302 RMK A01 T00521109  RH  030%=      5-min Rain = 0
KPD3 150450Z 01016KT 05/M11 A302 RMK A01 T00521109  RH  030%=      5-min Rain = 0
KPD3 150451Z 01015KT 05/M11 A302 RMK A01 T00521109  RH  030%=      5-min Rain = 0
KPD3 150452Z 01014KT 05/M11 A302 RMK A01 T00521108  RH  030%=      5-min Rain = 0
KPD3 150453Z 01013G18KT 05/M11 A302 RMK A01 T00511108  RH  031%=      5-min Rain = 0
KPD3 150454Z 01014KT 05/M11 A302 RMK A01 T00511108  RH  031%=      5-min Rain = 0
KPD3 150455Z 00016G21KT 05/M11 A302 RMK A01 T00511108  RH  031%=      5-min Rain = 0
KPD3 150456Z 00018KT 05/M11 A302 RMK A01 T00511109  RH  030%=      5-min Rain = 0
KPD3 150457Z 01018KT 05/M11 A302 RMK A01 T00511109  RH  030%=      5-min Rain = 0
KPD3 150458Z 00014KT 05/M11 A302 RMK A01 T00511109  RH  030%=      5-min Rain = 0
KPD3 150459Z 00017KT 05/M11 A302 RMK A01 T00511109  RH  031%=      5-min Rain = 0
KPD3 150500Z 01016KT 05/M11 A302 RMK A01 T00511109  RH  030%=      5-min Rain = 0
KPD3 150501Z 00016KT 05/M11 A302 RMK A01 T00511109  RH  030%=      5-min Rain = 0
KPD3 150502Z 01017KT 05/M11 A302 RMK A01 T00511109  RH  030%=      5-min Rain = 0
KPD3 150503Z 01020KT 05/M11 A302 RMK A01 T00511109  RH  030%=      5-min Rain = 0
KPD3 150504Z 00015KT 05/M11 A302 RMK A01 T00511109  RH  030%=      5-min Rain = 0
KPD3 150505Z 00013G18KT 05/M11 A302 RMK A01 T00501109  RH  031%=      5-min Rain = 0
KPD3 150506Z 00015KT 05/M11 A3021 RMK A01 T00501108  RH  031%=      5-min Rain = 0
KPD3 150507Z 00015KT 05/M11 A302 RMK A01 T00501108  RH  031%=      5-min Rain = 0
KPD3 150508Z 00013KT 05/M11 A3021 RMK A01 T00501109  RH  031%=      5-min Rain = 0
KPD3 150509Z 36011KT 05/M11 A3021 RMK A01 T00491108  RH  031%=      5-min Rain = 0
KPD3 150510Z 35013KT 05/M11 A3021 RMK A01 T00491107  RH  031%=      5-min Rain = 0
KPD3 150511Z 36015KT 05/M11 A3021 RMK A01 T00481107  RH  031%=      5-min Rain = 0
KPD3 150512Z 36012KT 05/M11 A3021 RMK A01 T00481107  RH  031%=      5-min Rain = 0
KPD3 150513Z 00015KT 05/M11 A3021 RMK A01 T00481107  RH  032%=      5-min Rain = 0
KPD3 150514Z 00012KT 05/M11 A3021 RMK A01 T00481107  RH  031%=      5-min Rain = 0
KPD3 150515Z 35010KT 05/M11 A3021 RMK A01 T00481107  RH  032%=      5-min Rain = 0
KPD3 150516Z 00013KT 05/M11 A3021 RMK A01 T00481106  RH  032%=      5-min Rain = 0
KPD3 150517Z 35014KT 05/M11 A3021 RMK A01 T00471107  RH  032%=      5-min Rain = 0
KPD3 150518Z 35012KT 05/M11 A3021 RMK A01 T00481107  RH  032%=      5-min Rain = 0
KPD3 150519Z 36012KT 05/M11 A3021 RMK A01 T00481106  RH  032%=      5-min Rain = 0
KPD3 150520Z 36014KT 05/M11 A3021 RMK A01 T00471107  RH  032%=      5-min Rain = 0
KPD3 150521Z 36014KT 05/M11 A3021 RMK A01 T00471107  RH  032%=      5-min Rain = 0
KPD3 150522Z 36011KT 05/M11 A3021 RMK A01 T00471107  RH  032%=      5-min Rain = 0
KPD3 150523Z 00011KT 05/M11 A3021 RMK A01 T00471106  RH  032%=      5-min Rain = 0
KPD3 150524Z 36013KT 05/M11 A3021 RMK A01 T00471106  RH  032%=      5-min Rain = 0
KPD3 150525Z 00013KT 05/M11 A3021 RMK A01 T00471106  RH  032%=      5-min Rain = 0
KPD3 150526Z 00011KT 05/M11 A3021 RMK A01 T00471106  RH  032%=      5-min Rain = 0
KPD3 150527Z 36012KT 05/M11 A3021 RMK A01 T00461106  RH  032%=      5-min Rain = 0
KPD3 150528Z 36012G17KT 05/M11 A3021 RMK A01 T00461106  RH  032%=      5-min Rain = 0
KPD3 150529Z 36012KT 05/M11 A3021 RMK A01 T00461106  RH  032%=      5-min Rain = 0
KPD3 150530Z 36012KT 05/M11 A3022 RMK A01 T00461106  RH  032%=      5-min Rain = 0
KPD3 150531Z 36013KT 05/M11 A3021 RMK A01 T00461106  RH  032%=      5-min Rain = 0
KPD3 150532Z 36011KT 05/M11 A3022 RMK A01 T00461105  RH  032%=      5-min Rain = 0
KPD3 150533Z 35011KT 05/M11 A3022 RMK A01 T00461105  RH  033%=      5-min Rain = 0
KPD3 150534Z 35014KT 05/M11 A3021 RMK A01 T00461105  RH  033%=      5-min Rain = 0
KPD3 150535Z 36013KT 05/M11 A3021 RMK A01 T00461106  RH  032%=      5-min Rain = 0
KPD3 150536Z 36013KT 05/M11 A3022 RMK A01 T00461106  RH  032%=      5-min Rain = 0
KPD3 150537Z 36012KT 05/M11 A3022 RMK A01 T00461106  RH  032%=      5-min Rain = 0
KPD3 150538Z 35011KT 05/M11 A3022 RMK A01 T00461105  RH  032%=      5-min Rain = 0
KPD3 150539Z 36010KT 05/M11 A3022 RMK A01 T00461105  RH  033%=      5-min Rain = 0
KPD3 150540Z 35012KT 05/M11 A3022 RMK A01 T00451105  RH  033%=      5-min Rain = 0
KPD3 150541Z 35013KT 05/M11 A3022 RMK A01 T00451106  RH  032%=      5-min Rain = 0
KPD3 150542Z 36010KT 05/M11 A3022 RMK A01 T00451106  RH  032%=      5-min Rain = 0
KPD3 150543Z 36015KT 05/M11 A3022 RMK A01 T00451106  RH  033%=      5-min Rain = 0
KPD3 150544Z 35014KT 05/M11 A3021 RMK A01 T00451106  RH  032%=      5-min Rain = 0
KPD3 150545Z 35011KT 05/M11 A3022 RMK A01 T00451107  RH  032%=      5-min Rain = 0
KPD3 150546Z 35014KT 05/M11 A3021 RMK A01 T00451106  RH  032%=      5-min Rain = 0
KPD3 150547Z 36014KT 05/M11 A3021 RMK A01 T00451107  RH  032%=      5-min Rain = 0
KPD3 150548Z 36011KT 05/M11 A3022 RMK A01 T00451107  RH  032%=      5-min Rain = 0
KPD3 150549Z 35011KT 05/M11 A3022 RMK A01 T00451105  RH  033%=      5-min Rain = 0
KPD3 150550Z 35014KT 04/M11 A3022 RMK A01 T00441106  RH  033%=      5-min Rain = 0
KPD3 150551Z 35011KT 04/M11 A3022 RMK A01 T00441107  RH  032%=      5-min Rain = 0
KPD3 150552Z 35011KT 04/M11 A3022 RMK A01 T00441106  RH  033%=      5-min Rain = 0
KPD3 150553Z 36012KT 04/M11 A3021 RMK A01 T00441107  RH  033%=      5-min Rain = 0
KPD3 150554Z 36011KT 04/M11 A3021 RMK A01 T00441106  RH  033%=      5-min Rain = 0
KPD3 150555Z 35010KT 04/M11 A3022 RMK A01 T00441106  RH  033%=      5-min Rain = 0
KPD3 150556Z 35009KT 04/M11 A3022 RMK A01 T00431106  RH  033%=      5-min Rain = 0
KPD3 150557Z 35010KT 04/M11 A3021 RMK A01 T00431106  RH  033%=      5-min Rain = 0
KPD3 150558Z 35010KT 04/M11 A3022 RMK A01 T00431106  RH  033%=      5-min Rain = 0
KPD3 150559Z 35010KT 04/M11 A3022 RMK A01 T00421106  RH  033%=      5-min Rain = 0

Page generated in 0.0737 seconds.